WGTL01 YWLM-YWLM
Flight info
| Callsign | WGTL01 |
|---|---|
| Flight time | 5h 40m |
| Altitude | 40000 |
| Route | UBSON DCT SORTI DCT SANAD DCT TW/N0402F200 W542 OVNOM W655 SULMI/N0455F400 Q165 VOMPA Q499 NONUM DCT AKROM/N0461F390 Y153 ROKUU H652 AVBOS/N0457F400 DCT LAXUM |
| Aircraft | E737/M-SDE2E3FGHIRWXY/LB1 |
Departure
| Time | 2026-04-25 02:48 |
|---|---|
| Airport | Newcastle Airport (YWLM) |
Arrival
| Time | 2026-04-25 08:29 |
|---|---|
| Airport | Newcastle Airport (YWLM) |
| Time | Latitude | Longitude | Altitude | Speed | Heading |
|---|---|---|---|---|---|
| 2026-04-25 02:27 | -32.79532 | 151.84155 | 34 ft | 0 kts | 234° |
| 2026-04-25 02:42 | -32.79542 | 151.84139 | 33 ft | 0 kts | 234° |
| 2026-04-25 02:42 | -32.79543 | 151.84137 | 33 ft | 0 kts | 234° |
| 2026-04-25 02:43 | -32.79538 | 151.84109 | 33 ft | 6 kts | 307° |
| 2026-04-25 02:43 | -32.79486 | 151.84061 | 33 ft | 12 kts | 323° |
| 2026-04-25 02:43 | -32.79471 | 151.83974 | 33 ft | 13 kts | 233° |
| 2026-04-25 02:43 | -32.79535 | 151.83873 | 33 ft | 15 kts | 233° |
| 2026-04-25 02:44 | -32.79577 | 151.83780 | 33 ft | 10 kts | 253° |
| 2026-04-25 02:44 | -32.79545 | 151.83704 | 33 ft | 12 kts | 309° |
| 2026-04-25 02:44 | -32.79481 | 151.83617 | 33 ft | 15 kts | 311° |
| 2026-04-25 02:44 | -32.79404 | 151.83514 | 33 ft | 18 kts | 311° |
| 2026-04-25 02:45 | -32.79327 | 151.83409 | 33 ft | 16 kts | 310° |
| 2026-04-25 02:45 | -32.79246 | 151.83295 | 33 ft | 19 kts | 310° |
| 2026-04-25 02:45 | -32.79158 | 151.83171 | 33 ft | 19 kts | 310° |
| 2026-04-25 02:45 | -32.79069 | 151.83049 | 33 ft | 20 kts | 311° |
| 2026-04-25 02:46 | -32.78973 | 151.82916 | 33 ft | 20 kts | 310° |
| 2026-04-25 02:46 | -32.78886 | 151.82794 | 33 ft | 18 kts | 310° |
| 2026-04-25 02:46 | -32.78800 | 151.82674 | 33 ft | 19 kts | 310° |
| 2026-04-25 02:46 | -32.78710 | 151.82547 | 33 ft | 20 kts | 310° |
| 2026-04-25 02:47 | -32.78630 | 151.82430 | 33 ft | 17 kts | 307° |
| 2026-04-25 02:47 | -32.78625 | 151.82373 | 33 ft | 3 kts | 249° |
| 2026-04-25 02:47 | -32.78664 | 151.82324 | 33 ft | 14 kts | 219° |
| 2026-04-25 02:47 | -32.78748 | 151.82309 | 34 ft | 13 kts | 132° |
| 2026-04-25 02:48 | -32.78757 | 151.82321 | 33 ft | 5 kts | 131° |
| 2026-04-25 02:48 | -32.78984 | 151.82634 | 34 ft | 92 kts | 130° |
| 2026-04-25 02:48 | -32.79560 | 151.83444 | 90 ft | 156 kts | 129° |
| 2026-04-25 02:48 | -32.80246 | 151.84416 | 871 ft | 158 kts | 128° |
| 2026-04-25 02:49 | -32.80989 | 151.85448 | 1512 ft | 176 kts | 128° |
| 2026-04-25 02:49 | -32.81712 | 151.86656 | 2147 ft | 187 kts | 108° |
| 2026-04-25 02:49 | -32.81728 | 151.88213 | 2787 ft | 198 kts | 72° |
| 2026-04-25 02:49 | -32.81017 | 151.89636 | 3428 ft | 212 kts | 50° |
| 2026-04-25 02:50 | -32.79874 | 151.90846 | 4073 ft | 227 kts | 39° |
| 2026-04-25 02:50 | -32.78594 | 151.91989 | 4788 ft | 237 kts | 38° |
| 2026-04-25 02:50 | -32.77278 | 151.93178 | 5620 ft | 243 kts | 39° |
| 2026-04-25 02:50 | -32.75941 | 151.94389 | 6572 ft | 245 kts | 36° |
| 2026-04-25 02:51 | -32.74437 | 151.95290 | 7489 ft | 250 kts | 17° |
| 2026-04-25 02:51 | -32.72638 | 151.95360 | 8137 ft | 270 kts | 353° |
| 2026-04-25 02:51 | -32.70762 | 151.94832 | 8769 ft | 286 kts | 347° |
| 2026-04-25 02:51 | -32.68810 | 151.94199 | 9509 ft | 295 kts | 347° |
| 2026-04-25 02:52 | -32.66827 | 151.93590 | 10325 ft | 302 kts | 348° |
| 2026-04-25 02:52 | -32.64728 | 151.92987 | 10880 ft | 318 kts | 349° |
| 2026-04-25 02:52 | -32.62549 | 151.92383 | 11424 ft | 333 kts | 349° |
| 2026-04-25 02:52 | -32.60236 | 151.91745 | 11947 ft | 349 kts | 349° |
| 2026-04-25 02:53 | -32.57824 | 151.91081 | 12449 ft | 364 kts | 348° |
| 2026-04-25 02:53 | -32.55299 | 151.90384 | 12946 ft | 379 kts | 348° |
| 2026-04-25 02:53 | -32.52710 | 151.89664 | 13719 ft | 385 kts | 348° |
| 2026-04-25 02:53 | -32.50104 | 151.88937 | 14572 ft | 387 kts | 348° |
| 2026-04-25 02:54 | -32.47456 | 151.88202 | 15416 ft | 391 kts | 348° |
| 2026-04-25 02:54 | -32.44793 | 151.87517 | 16237 ft | 394 kts | 351° |
| 2026-04-25 02:54 | -32.42074 | 151.87041 | 17024 ft | 396 kts | 356° |
| 2026-04-25 02:54 | -32.39344 | 151.86868 | 17818 ft | 398 kts | 1° |
| 2026-04-25 02:55 | -32.36563 | 151.86879 | 18550 ft | 402 kts | 3° |
| 2026-04-25 02:55 | -32.33752 | 151.86968 | 19199 ft | 408 kts | 4° |
| 2026-04-25 02:55 | -32.30895 | 151.87073 | 19878 ft | 413 kts | 4° |
| 2026-04-25 02:55 | -32.28019 | 151.87163 | 20556 ft | 417 kts | 4° |
| 2026-04-25 02:56 | -32.25100 | 151.87238 | 21214 ft | 421 kts | 3° |
| 2026-04-25 02:56 | -32.22176 | 151.87299 | 21881 ft | 425 kts | 3° |
| 2026-04-25 02:56 | -32.19188 | 151.87352 | 22489 ft | 430 kts | 3° |
| 2026-04-25 02:56 | -32.16209 | 151.87402 | 23090 ft | 434 kts | 4° |
| 2026-04-25 02:57 | -32.13152 | 151.87450 | 23692 ft | 438 kts | 3° |
| 2026-04-25 02:57 | -32.10087 | 151.87497 | 24230 ft | 443 kts | 4° |
| 2026-04-25 02:57 | -32.07017 | 151.87543 | 24764 ft | 447 kts | 4° |
| 2026-04-25 02:57 | -32.03908 | 151.87592 | 25328 ft | 450 kts | 4° |
| 2026-04-25 02:58 | -32.00742 | 151.87640 | 25791 ft | 456 kts | 4° |
| 2026-04-25 02:58 | -31.97537 | 151.87691 | 26266 ft | 460 kts | 4° |
| 2026-04-25 02:58 | -31.94349 | 151.87740 | 26746 ft | 464 kts | 4° |
| 2026-04-25 02:58 | -31.91080 | 151.87787 | 27212 ft | 469 kts | 4° |
| 2026-04-25 02:59 | -31.87818 | 151.87653 | 27640 ft | 475 kts | 358° |
| 2026-04-25 02:59 | -31.84473 | 151.87027 | 28030 ft | 484 kts | 349° |
| 2026-04-25 02:59 | -31.81251 | 151.85805 | 28470 ft | 491 kts | 340° |
| 2026-04-25 02:59 | -31.78165 | 151.83987 | 28852 ft | 498 kts | 330° |
| 2026-04-25 03:00 | -31.75297 | 151.81622 | 29283 ft | 502 kts | 322° |
| 2026-04-25 03:00 | -31.72650 | 151.78915 | 29735 ft | 505 kts | 317° |
| 2026-04-25 03:00 | -31.70095 | 151.76013 | 30102 ft | 509 kts | 315° |
| 2026-04-25 03:00 | -31.67604 | 151.73071 | 30792 ft | 505 kts | 314° |
| 2026-04-25 03:01 | -31.65142 | 151.70167 | 31514 ft | 500 kts | 314° |
| 2026-04-25 03:01 | -31.62685 | 151.67323 | 32104 ft | 497 kts | 314° |
| 2026-04-25 03:01 | -31.60190 | 151.64500 | 32583 ft | 498 kts | 314° |
| 2026-04-25 03:01 | -31.57691 | 151.61729 | 33028 ft | 498 kts | 314° |
| 2026-04-25 03:02 | -31.55161 | 151.58964 | 33445 ft | 499 kts | 315° |
| 2026-04-25 03:02 | -31.52607 | 151.56204 | 34005 ft | 496 kts | 314° |
| 2026-04-25 03:02 | -31.50055 | 151.53465 | 34585 ft | 493 kts | 314° |
| 2026-04-25 03:02 | -31.47543 | 151.50778 | 35107 ft | 492 kts | 314° |
| 2026-04-25 03:03 | -31.45005 | 151.48068 | 35498 ft | 493 kts | 314° |
| 2026-04-25 03:03 | -31.42491 | 151.45381 | 36023 ft | 491 kts | 314° |
| 2026-04-25 03:03 | -31.40073 | 151.42583 | 36512 ft | 487 kts | 309° |
| 2026-04-25 03:03 | -31.37905 | 151.39622 | 36949 ft | 484 kts | 304° |
| 2026-04-25 03:04 | -31.35912 | 151.36447 | 37331 ft | 482 kts | 300° |
| 2026-04-25 03:04 | -31.34040 | 151.33160 | 37732 ft | 480 kts | 298° |
| 2026-04-25 03:04 | -31.32283 | 151.29910 | 38143 ft | 478 kts | 297° |
| 2026-04-25 03:05 | -31.28783 | 151.23270 | 38381 ft | 483 kts | 297° |
| 2026-04-25 03:05 | -31.27027 | 151.19945 | 38371 ft | 479 kts | 297° |
| 2026-04-25 03:05 | -31.23521 | 151.13379 | 38371 ft | 478 kts | 297° |
| 2026-04-25 03:06 | -31.19982 | 151.06816 | 38365 ft | 477 kts | 297° |
| 2026-04-25 03:06 | -31.16437 | 151.00278 | 38363 ft | 478 kts | 298° |
| 2026-04-25 03:07 | -31.12890 | 150.93762 | 38367 ft | 477 kts | 297° |
| 2026-04-25 03:07 | -31.09284 | 150.87289 | 38371 ft | 477 kts | 301° |
| 2026-04-25 03:08 | -31.04914 | 150.81432 | 38373 ft | 484 kts | 313° |
| 2026-04-25 03:08 | -30.99519 | 150.76659 | 38365 ft | 490 kts | 326° |
| 2026-04-25 03:09 | -30.93369 | 150.73244 | 38347 ft | 492 kts | 338° |
| 2026-04-25 03:09 | -30.86827 | 150.70851 | 38342 ft | 493 kts | 341° |
| 2026-04-25 03:10 | -30.80317 | 150.68387 | 38342 ft | 494 kts | 339° |
| 2026-04-25 03:10 | -30.73906 | 150.65544 | 38332 ft | 493 kts | 336° |
| 2026-04-25 03:11 | -30.67566 | 150.62436 | 38332 ft | 493 kts | 334° |
| 2026-04-25 03:11 | -30.61290 | 150.59219 | 38329 ft | 492 kts | 333° |
| 2026-04-25 03:12 | -30.55057 | 150.55981 | 38331 ft | 492 kts | 333° |
| 2026-04-25 03:12 | -30.48832 | 150.52743 | 38327 ft | 492 kts | 333° |
| 2026-04-25 03:13 | -30.42602 | 150.49507 | 38320 ft | 493 kts | 333° |
| 2026-04-25 03:13 | -30.36305 | 150.46245 | 38349 ft | 496 kts | 333° |
| 2026-04-25 03:14 | -30.33164 | 150.44617 | 38764 ft | 493 kts | 332° |
| 2026-04-25 03:14 | -30.30126 | 150.42923 | 39155 ft | 490 kts | 329° |
| 2026-04-25 03:14 | -30.27112 | 150.41052 | 39439 ft | 490 kts | 327° |
| 2026-04-25 03:14 | -30.24160 | 150.39099 | 39732 ft | 489 kts | 326° |
| 2026-04-25 03:15 | -30.21254 | 150.37123 | 40173 ft | 485 kts | 325° |
| 2026-04-25 03:15 | -30.18348 | 150.35135 | 40312 ft | 487 kts | 325° |
| 2026-04-25 03:15 | -30.12503 | 150.31160 | 40321 ft | 484 kts | 326° |
| 2026-04-25 03:16 | -30.06694 | 150.27269 | 40324 ft | 484 kts | 326° |
| 2026-04-25 03:16 | -30.00824 | 150.23370 | 40296 ft | 486 kts | 326° |
| 2026-04-25 03:17 | -29.94967 | 150.19504 | 40315 ft | 485 kts | 327° |
| 2026-04-25 03:17 | -29.88941 | 150.16038 | 40305 ft | 488 kts | 336° |
| 2026-04-25 03:18 | -29.82380 | 150.13876 | 40297 ft | 492 kts | 345° |
| 2026-04-25 03:18 | -29.75656 | 150.12311 | 40292 ft | 493 kts | 347° |
| 2026-04-25 03:19 | -29.68891 | 150.10855 | 40288 ft | 494 kts | 347° |
| 2026-04-25 03:19 | -29.62265 | 150.08864 | 40284 ft | 489 kts | 336° |
| 2026-04-25 03:20 | -29.56007 | 150.05856 | 40275 ft | 487 kts | 331° |
| 2026-04-25 03:20 | -29.49879 | 150.02583 | 40275 ft | 487 kts | 331° |
| 2026-04-25 03:21 | -29.43726 | 149.99329 | 40261 ft | 486 kts | 332° |
| 2026-04-25 03:21 | -29.37584 | 149.96164 | 40269 ft | 487 kts | 332° |
| 2026-04-25 03:22 | -29.31398 | 149.93031 | 40276 ft | 486 kts | 332° |
| 2026-04-25 03:22 | -29.25188 | 149.89912 | 40256 ft | 486 kts | 332° |
| 2026-04-25 03:23 | -29.18990 | 149.86807 | 40264 ft | 486 kts | 332° |
| 2026-04-25 03:23 | -29.12808 | 149.83714 | 40267 ft | 484 kts | 332° |
| 2026-04-25 03:24 | -29.06653 | 149.80637 | 40262 ft | 486 kts | 332° |
| 2026-04-25 03:24 | -29.00427 | 149.77527 | 40261 ft | 486 kts | 332° |
| 2026-04-25 03:25 | -28.94241 | 149.74443 | 40261 ft | 485 kts | 332° |
| 2026-04-25 03:25 | -28.88059 | 149.71365 | 40268 ft | 484 kts | 331° |
| 2026-04-25 03:26 | -28.81861 | 149.68278 | 40263 ft | 486 kts | 331° |
| 2026-04-25 03:26 | -28.75708 | 149.65222 | 40263 ft | 484 kts | 331° |
| 2026-04-25 03:27 | -28.69506 | 149.62144 | 40263 ft | 485 kts | 331° |
| 2026-04-25 03:27 | -28.63325 | 149.59080 | 40260 ft | 486 kts | 332° |
| 2026-04-25 03:28 | -28.57155 | 149.56029 | 40261 ft | 485 kts | 331° |
| 2026-04-25 03:28 | -28.50940 | 149.52957 | 40259 ft | 485 kts | 331° |
| 2026-04-25 03:29 | -28.44787 | 149.49918 | 40261 ft | 485 kts | 331° |
| 2026-04-25 03:29 | -28.38583 | 149.46861 | 40255 ft | 485 kts | 331° |
| 2026-04-25 03:30 | -28.32366 | 149.43800 | 40257 ft | 484 kts | 331° |
| 2026-04-25 03:30 | -28.26212 | 149.40775 | 40261 ft | 483 kts | 331° |
| 2026-04-25 03:31 | -28.19985 | 149.37840 | 40260 ft | 487 kts | 334° |
| 2026-04-25 03:31 | -28.13589 | 149.35396 | 40258 ft | 487 kts | 337° |
| 2026-04-25 03:32 | -28.07070 | 149.33104 | 40251 ft | 489 kts | 338° |
| 2026-04-25 03:32 | -28.00562 | 149.30806 | 40248 ft | 489 kts | 338° |
| 2026-04-25 03:33 | -27.94107 | 149.28494 | 40235 ft | 488 kts | 337° |
| 2026-04-25 03:33 | -27.87615 | 149.26144 | 40239 ft | 489 kts | 337° |
| 2026-04-25 03:34 | -27.81108 | 149.23781 | 40233 ft | 488 kts | 337° |
| 2026-04-25 03:34 | -27.74654 | 149.21433 | 40236 ft | 489 kts | 337° |
| 2026-04-25 03:35 | -27.68193 | 149.19084 | 40238 ft | 489 kts | 337° |
| 2026-04-25 03:35 | -27.61732 | 149.16742 | 40238 ft | 487 kts | 337° |
| 2026-04-25 03:36 | -27.55247 | 149.14394 | 40236 ft | 488 kts | 337° |
| 2026-04-25 03:36 | -27.48780 | 149.12053 | 40241 ft | 489 kts | 336° |
| 2026-04-25 03:37 | -27.42296 | 149.09711 | 40240 ft | 486 kts | 336° |
| 2026-04-25 03:37 | -27.35875 | 149.07393 | 40234 ft | 486 kts | 336° |
| 2026-04-25 03:38 | -27.29453 | 149.05078 | 40236 ft | 486 kts | 336° |
| 2026-04-25 03:38 | -27.22997 | 149.02756 | 40237 ft | 485 kts | 336° |
| 2026-04-25 03:39 | -27.16573 | 149.00444 | 40234 ft | 487 kts | 336° |
| 2026-04-25 03:39 | -27.10117 | 148.98125 | 40231 ft | 485 kts | 336° |
| 2026-04-25 03:40 | -27.03665 | 148.95811 | 40228 ft | 486 kts | 336° |
| 2026-04-25 03:40 | -26.97254 | 148.93514 | 40229 ft | 486 kts | 336° |
| 2026-04-25 03:41 | -26.90799 | 148.91205 | 40229 ft | 486 kts | 336° |
| 2026-04-25 03:41 | -26.84348 | 148.88898 | 40230 ft | 486 kts | 336° |
| 2026-04-25 03:42 | -26.77885 | 148.86589 | 40225 ft | 488 kts | 336° |
| 2026-04-25 03:42 | -26.71416 | 148.84280 | 40223 ft | 487 kts | 336° |
| 2026-04-25 03:43 | -26.64982 | 148.81990 | 40222 ft | 487 kts | 336° |
| 2026-04-25 03:43 | -26.58499 | 148.79686 | 40222 ft | 487 kts | 336° |
| 2026-04-25 03:44 | -26.52053 | 148.77423 | 40219 ft | 487 kts | 337° |
| 2026-04-25 03:44 | -26.45464 | 148.75415 | 40224 ft | 491 kts | 339° |
| 2026-04-25 03:45 | -26.38870 | 148.73544 | 40224 ft | 490 kts | 339° |
| 2026-04-25 03:45 | -26.32269 | 148.71669 | 40229 ft | 490 kts | 339° |
| 2026-04-25 03:46 | -26.25644 | 148.69762 | 40230 ft | 491 kts | 339° |
| 2026-04-25 03:46 | -26.19033 | 148.67842 | 40228 ft | 490 kts | 339° |
| 2026-04-25 03:47 | -26.12452 | 148.65924 | 40227 ft | 492 kts | 339° |
| 2026-04-25 03:47 | -26.05827 | 148.63989 | 40226 ft | 491 kts | 339° |
| 2026-04-25 03:48 | -25.99210 | 148.62058 | 40229 ft | 494 kts | 338° |
| 2026-04-25 03:48 | -25.92577 | 148.60127 | 40228 ft | 492 kts | 338° |
| 2026-04-25 03:49 | -25.85909 | 148.58189 | 40221 ft | 493 kts | 338° |
| 2026-04-25 03:49 | -25.79248 | 148.56255 | 40227 ft | 494 kts | 338° |
| 2026-04-25 03:50 | -25.72605 | 148.54326 | 40224 ft | 495 kts | 338° |
| 2026-04-25 03:50 | -25.65950 | 148.52397 | 40230 ft | 495 kts | 338° |
| 2026-04-25 03:51 | -25.59278 | 148.50467 | 40224 ft | 494 kts | 338° |
| 2026-04-25 03:51 | -25.52632 | 148.48546 | 40222 ft | 494 kts | 338° |
| 2026-04-25 03:52 | -25.45982 | 148.46623 | 40225 ft | 494 kts | 338° |
| 2026-04-25 03:52 | -25.39339 | 148.44704 | 40227 ft | 495 kts | 338° |
| 2026-04-25 03:53 | -25.32681 | 148.42786 | 40227 ft | 495 kts | 337° |
| 2026-04-25 03:53 | -25.26017 | 148.40868 | 40226 ft | 496 kts | 337° |
| 2026-04-25 03:54 | -25.19312 | 148.38940 | 40230 ft | 495 kts | 337° |
| 2026-04-25 03:54 | -25.12664 | 148.37032 | 40229 ft | 496 kts | 337° |
| 2026-04-25 03:55 | -25.05947 | 148.35103 | 40226 ft | 497 kts | 337° |
| 2026-04-25 03:55 | -24.99289 | 148.33199 | 40224 ft | 495 kts | 337° |
| 2026-04-25 03:56 | -24.92597 | 148.31285 | 40224 ft | 496 kts | 337° |
| 2026-04-25 03:56 | -24.85909 | 148.29372 | 40221 ft | 497 kts | 337° |
| 2026-04-25 03:57 | -24.79204 | 148.27457 | 40222 ft | 498 kts | 337° |
| 2026-04-25 03:57 | -24.72473 | 148.25532 | 40226 ft | 500 kts | 337° |
| 2026-04-25 03:58 | -24.65725 | 148.23613 | 40214 ft | 498 kts | 336° |
| 2026-04-25 03:58 | -24.59021 | 148.21710 | 40219 ft | 501 kts | 337° |
| 2026-04-25 03:59 | -24.52248 | 148.19781 | 40204 ft | 500 kts | 337° |
| 2026-04-25 03:59 | -24.45536 | 148.17877 | 40199 ft | 500 kts | 336° |
| 2026-04-25 04:00 | -24.38787 | 148.15961 | 40198 ft | 501 kts | 336° |
| 2026-04-25 04:00 | -24.32000 | 148.14035 | 40199 ft | 502 kts | 336° |
| 2026-04-25 04:01 | -24.25229 | 148.12115 | 40192 ft | 504 kts | 336° |
| 2026-04-25 04:01 | -24.18445 | 148.10197 | 40190 ft | 505 kts | 336° |
| 2026-04-25 04:02 | -24.11643 | 148.08276 | 40194 ft | 503 kts | 336° |
| 2026-04-25 04:02 | -24.04879 | 148.06374 | 40193 ft | 504 kts | 336° |
| 2026-04-25 04:03 | -23.98100 | 148.04462 | 40193 ft | 504 kts | 336° |
| 2026-04-25 04:03 | -23.91269 | 148.02539 | 40191 ft | 503 kts | 335° |
| 2026-04-25 04:04 | -23.84507 | 148.00638 | 40189 ft | 506 kts | 335° |
| 2026-04-25 04:04 | -23.77669 | 147.98714 | 40180 ft | 505 kts | 335° |
| 2026-04-25 04:05 | -23.70817 | 147.96788 | 40172 ft | 507 kts | 335° |
| 2026-04-25 04:05 | -23.63998 | 147.94878 | 40168 ft | 507 kts | 335° |
| 2026-04-25 04:06 | -23.57128 | 147.92958 | 40170 ft | 509 kts | 335° |
| 2026-04-25 04:06 | -23.50265 | 147.91038 | 40166 ft | 508 kts | 335° |
| 2026-04-25 04:07 | -23.43393 | 147.89116 | 40164 ft | 512 kts | 335° |
| 2026-04-25 04:07 | -23.36531 | 147.87205 | 40158 ft | 509 kts | 335° |
| 2026-04-25 04:08 | -23.29639 | 147.85280 | 40150 ft | 514 kts | 335° |
| 2026-04-25 04:08 | -23.22756 | 147.83368 | 40153 ft | 510 kts | 335° |
| 2026-04-25 04:09 | -23.15852 | 147.81455 | 40153 ft | 510 kts | 335° |
| 2026-04-25 04:09 | -23.08974 | 147.79542 | 40152 ft | 512 kts | 334° |
| 2026-04-25 04:10 | -23.02095 | 147.77631 | 40146 ft | 510 kts | 335° |
| 2026-04-25 04:10 | -22.95192 | 147.75720 | 40144 ft | 510 kts | 335° |
| 2026-04-25 04:11 | -22.84849 | 147.72849 | 40142 ft | 511 kts | 335° |
| 2026-04-25 04:12 | -22.78010 | 147.70960 | 40152 ft | 504 kts | 334° |
| 2026-04-25 04:12 | -22.71170 | 147.69064 | 40150 ft | 509 kts | 335° |
| 2026-04-25 04:13 | -22.64325 | 147.67174 | 40147 ft | 507 kts | 335° |
| 2026-04-25 04:13 | -22.57476 | 147.65288 | 40142 ft | 507 kts | 335° |
| 2026-04-25 04:14 | -22.50621 | 147.63406 | 40150 ft | 505 kts | 335° |
| 2026-04-25 04:14 | -22.43847 | 147.61548 | 40145 ft | 506 kts | 335° |
| 2026-04-25 04:15 | -22.36996 | 147.59660 | 40143 ft | 507 kts | 335° |
| 2026-04-25 04:15 | -22.30228 | 147.57803 | 40139 ft | 502 kts | 336° |
| 2026-04-25 04:16 | -22.23452 | 147.55946 | 40133 ft | 502 kts | 335° |
| 2026-04-25 04:16 | -22.16690 | 147.54092 | 40132 ft | 503 kts | 335° |
| 2026-04-25 04:17 | -22.09936 | 147.52246 | 40129 ft | 498 kts | 336° |
| 2026-04-25 04:17 | -22.03210 | 147.50406 | 40126 ft | 500 kts | 335° |
| 2026-04-25 04:18 | -21.96428 | 147.48546 | 40120 ft | 499 kts | 335° |
| 2026-04-25 04:18 | -21.89751 | 147.46730 | 40122 ft | 497 kts | 335° |
| 2026-04-25 04:19 | -21.83036 | 147.44897 | 40123 ft | 496 kts | 336° |
| 2026-04-25 04:19 | -21.76332 | 147.43074 | 40122 ft | 495 kts | 335° |
| 2026-04-25 04:20 | -21.69689 | 147.41267 | 40122 ft | 493 kts | 335° |
| 2026-04-25 04:20 | -21.63018 | 147.39447 | 40121 ft | 494 kts | 335° |
| 2026-04-25 04:21 | -21.56326 | 147.37628 | 40120 ft | 491 kts | 335° |
| 2026-04-25 04:21 | -21.49747 | 147.35849 | 40121 ft | 488 kts | 336° |
| 2026-04-25 04:22 | -21.43118 | 147.34049 | 40110 ft | 491 kts | 336° |
| 2026-04-25 04:22 | -21.36494 | 147.32257 | 40107 ft | 488 kts | 335° |
| 2026-04-25 04:23 | -21.29876 | 147.30466 | 40115 ft | 488 kts | 335° |
| 2026-04-25 04:23 | -21.23319 | 147.28690 | 40111 ft | 489 kts | 336° |
| 2026-04-25 04:24 | -21.16740 | 147.26914 | 40120 ft | 485 kts | 335° |
| 2026-04-25 04:24 | -21.10163 | 147.25142 | 40115 ft | 484 kts | 335° |
| 2026-04-25 04:25 | -21.03645 | 147.23383 | 40114 ft | 483 kts | 335° |
| 2026-04-25 04:25 | -20.97122 | 147.21625 | 40119 ft | 482 kts | 335° |
| 2026-04-25 04:26 | -20.90622 | 147.19873 | 40114 ft | 481 kts | 335° |
| 2026-04-25 04:26 | -20.84088 | 147.18114 | 40114 ft | 485 kts | 335° |
| 2026-04-25 04:27 | -20.77566 | 147.16365 | 40108 ft | 479 kts | 335° |
| 2026-04-25 04:27 | -20.71090 | 147.14630 | 40103 ft | 481 kts | 335° |
| 2026-04-25 04:28 | -20.64603 | 147.12891 | 40102 ft | 479 kts | 335° |
| 2026-04-25 04:28 | -20.58083 | 147.11140 | 40095 ft | 481 kts | 335° |
| 2026-04-25 04:29 | -20.51620 | 147.09410 | 40096 ft | 480 kts | 335° |
| 2026-04-25 04:29 | -20.45138 | 147.07675 | 40089 ft | 479 kts | 335° |
| 2026-04-25 04:30 | -20.38686 | 147.05953 | 40102 ft | 480 kts | 335° |
| 2026-04-25 04:30 | -20.32162 | 147.04208 | 40099 ft | 478 kts | 335° |
| 2026-04-25 04:31 | -20.25741 | 147.02504 | 40102 ft | 476 kts | 335° |
| 2026-04-25 04:31 | -20.19286 | 147.00778 | 40107 ft | 479 kts | 336° |
| 2026-04-25 04:32 | -20.12843 | 146.99065 | 40103 ft | 475 kts | 336° |
| 2026-04-25 04:32 | -20.06401 | 146.97350 | 40092 ft | 480 kts | 335° |
| 2026-04-25 04:33 | -19.99948 | 146.95633 | 40085 ft | 477 kts | 335° |
| 2026-04-25 04:33 | -19.93531 | 146.93935 | 40081 ft | 475 kts | 335° |
| 2026-04-25 04:34 | -19.87055 | 146.92207 | 40080 ft | 476 kts | 335° |
| 2026-04-25 04:34 | -19.80737 | 146.90311 | 40077 ft | 469 kts | 330° |
| 2026-04-25 04:35 | -19.74794 | 146.87619 | 40079 ft | 459 kts | 324° |
| 2026-04-25 04:35 | -19.69091 | 146.84602 | 40080 ft | 458 kts | 322° |
| 2026-04-25 04:36 | -19.63403 | 146.81526 | 40077 ft | 458 kts | 322° |
| 2026-04-25 04:36 | -19.57734 | 146.78493 | 40075 ft | 458 kts | 323° |
| 2026-04-25 04:37 | -19.52049 | 146.75484 | 40072 ft | 457 kts | 323° |
| 2026-04-25 04:37 | -19.46335 | 146.72479 | 40068 ft | 456 kts | 323° |
| 2026-04-25 04:38 | -19.40672 | 146.69505 | 40073 ft | 458 kts | 323° |
| 2026-04-25 04:38 | -19.34925 | 146.66493 | 40073 ft | 457 kts | 323° |
| 2026-04-25 04:39 | -19.29253 | 146.63530 | 40072 ft | 457 kts | 323° |
| 2026-04-25 04:39 | -19.23511 | 146.60521 | 40065 ft | 459 kts | 324° |
| 2026-04-25 04:40 | -19.17787 | 146.57532 | 40064 ft | 456 kts | 323° |
| 2026-04-25 04:40 | -19.12102 | 146.54568 | 40059 ft | 456 kts | 324° |
| 2026-04-25 04:41 | -19.06403 | 146.51596 | 40056 ft | 455 kts | 324° |
| 2026-04-25 04:41 | -19.00710 | 146.48625 | 40051 ft | 457 kts | 324° |
| 2026-04-25 04:42 | -18.95000 | 146.45650 | 40050 ft | 457 kts | 324° |
| 2026-04-25 04:42 | -18.89305 | 146.42686 | 40051 ft | 455 kts | 324° |
| 2026-04-25 04:43 | -18.83594 | 146.39714 | 40055 ft | 457 kts | 324° |
| 2026-04-25 04:43 | -18.77920 | 146.36765 | 40053 ft | 454 kts | 324° |
| 2026-04-25 04:44 | -18.72225 | 146.33810 | 40050 ft | 454 kts | 324° |
| 2026-04-25 04:44 | -18.66534 | 146.30850 | 40049 ft | 456 kts | 325° |
| 2026-04-25 04:45 | -18.60857 | 146.27907 | 40049 ft | 455 kts | 325° |
| 2026-04-25 04:45 | -18.55163 | 146.24960 | 40048 ft | 453 kts | 325° |
| 2026-04-25 04:46 | -18.49507 | 146.22032 | 40052 ft | 454 kts | 325° |
| 2026-04-25 04:46 | -18.43807 | 146.19078 | 40055 ft | 454 kts | 325° |
| 2026-04-25 04:47 | -18.38139 | 146.16150 | 40054 ft | 454 kts | 325° |
| 2026-04-25 04:47 | -18.32493 | 146.13234 | 40053 ft | 454 kts | 325° |
| 2026-04-25 04:47 | -18.29669 | 146.11777 | 39872 ft | 451 kts | 325° |
| 2026-04-25 04:48 | -18.26839 | 146.10318 | 38922 ft | 454 kts | 325° |
| 2026-04-25 04:48 | -18.24011 | 146.08856 | 38070 ft | 455 kts | 326° |
| 2026-04-25 04:48 | -18.21150 | 146.07381 | 37412 ft | 453 kts | 325° |
| 2026-04-25 04:48 | -18.18343 | 146.05936 | 36770 ft | 451 kts | 326° |
| 2026-04-25 04:49 | -18.15521 | 146.04483 | 36111 ft | 450 kts | 325° |
| 2026-04-25 04:49 | -18.12702 | 146.03030 | 35415 ft | 452 kts | 325° |
| 2026-04-25 04:49 | -18.09879 | 146.01575 | 34677 ft | 453 kts | 326° |
| 2026-04-25 04:49 | -18.07057 | 146.00120 | 33916 ft | 453 kts | 326° |
| 2026-04-25 04:50 | -18.04221 | 145.98659 | 33127 ft | 454 kts | 326° |
| 2026-04-25 04:50 | -18.01400 | 145.97205 | 32371 ft | 456 kts | 326° |
| 2026-04-25 04:50 | -17.98554 | 145.95740 | 31604 ft | 457 kts | 326° |
| 2026-04-25 04:50 | -17.95670 | 145.94255 | 30774 ft | 460 kts | 326° |
| 2026-04-25 04:51 | -17.92807 | 145.92781 | 29928 ft | 463 kts | 326° |
| 2026-04-25 04:51 | -17.89909 | 145.91292 | 29214 ft | 462 kts | 326° |
| 2026-04-25 04:51 | -17.86983 | 145.89790 | 28594 ft | 466 kts | 326° |
| 2026-04-25 04:51 | -17.84031 | 145.88269 | 27945 ft | 478 kts | 327° |
| 2026-04-25 04:52 | -17.81041 | 145.86731 | 27259 ft | 478 kts | 327° |
| 2026-04-25 04:52 | -17.78059 | 145.85204 | 26558 ft | 475 kts | 328° |
| 2026-04-25 04:52 | -17.75092 | 145.83688 | 25854 ft | 472 kts | 328° |
| 2026-04-25 04:52 | -17.72149 | 145.82188 | 25151 ft | 469 kts | 329° |
| 2026-04-25 04:53 | -17.69193 | 145.80765 | 24455 ft | 467 kts | 332° |
| 2026-04-25 04:53 | -17.66153 | 145.79567 | 23754 ft | 467 kts | 337° |
| 2026-04-25 04:53 | -17.63063 | 145.78584 | 23056 ft | 465 kts | 340° |
| 2026-04-25 04:53 | -17.59950 | 145.77716 | 22342 ft | 463 kts | 342° |
| 2026-04-25 04:54 | -17.56849 | 145.76903 | 21616 ft | 460 kts | 342° |
| 2026-04-25 04:54 | -17.53734 | 145.76102 | 20899 ft | 456 kts | 343° |
| 2026-04-25 04:54 | -17.50676 | 145.75313 | 20183 ft | 452 kts | 343° |
| 2026-04-25 04:54 | -17.47628 | 145.74519 | 19478 ft | 448 kts | 343° |
| 2026-04-25 04:55 | -17.44619 | 145.73727 | 18771 ft | 444 kts | 343° |
| 2026-04-25 04:55 | -17.41639 | 145.72937 | 18065 ft | 441 kts | 343° |
| 2026-04-25 04:55 | -17.38695 | 145.72148 | 17369 ft | 437 kts | 343° |
| 2026-04-25 04:55 | -17.35733 | 145.71352 | 16678 ft | 433 kts | 343° |
| 2026-04-25 04:56 | -17.32832 | 145.70566 | 15978 ft | 429 kts | 343° |
| 2026-04-25 04:56 | -17.29991 | 145.69795 | 15298 ft | 425 kts | 344° |
| 2026-04-25 04:56 | -17.27107 | 145.69011 | 14590 ft | 421 kts | 344° |
| 2026-04-25 04:56 | -17.24303 | 145.68248 | 13914 ft | 417 kts | 345° |
| 2026-04-25 04:57 | -17.21518 | 145.67488 | 13223 ft | 412 kts | 345° |
| 2026-04-25 04:57 | -17.18768 | 145.66740 | 12547 ft | 408 kts | 345° |
| 2026-04-25 04:57 | -17.16022 | 145.65993 | 11865 ft | 403 kts | 345° |
| 2026-04-25 04:57 | -17.13304 | 145.65253 | 11189 ft | 399 kts | 345° |
| 2026-04-25 04:58 | -17.10654 | 145.64533 | 10619 ft | 392 kts | 345° |
| 2026-04-25 04:58 | -17.08078 | 145.63832 | 10411 ft | 375 kts | 345° |
| 2026-04-25 04:58 | -17.05603 | 145.63158 | 10321 ft | 356 kts | 345° |
| 2026-04-25 04:58 | -17.03237 | 145.62508 | 10190 ft | 340 kts | 343° |
| 2026-04-25 04:59 | -17.01136 | 145.61496 | 9988 ft | 327 kts | 326° |
| 2026-04-25 04:59 | -16.99372 | 145.60043 | 9783 ft | 317 kts | 318° |
| 2026-04-25 04:59 | -16.97775 | 145.58539 | 9698 ft | 304 kts | 316° |
| 2026-04-25 04:59 | -16.96254 | 145.57072 | 9572 ft | 294 kts | 316° |
| 2026-04-25 05:00 | -16.94745 | 145.55617 | 9235 ft | 292 kts | 316° |
| 2026-04-25 05:00 | -16.93269 | 145.54189 | 8916 ft | 289 kts | 316° |
| 2026-04-25 05:00 | -16.91802 | 145.52765 | 8581 ft | 288 kts | 316° |
| 2026-04-25 05:00 | -16.90332 | 145.51335 | 8220 ft | 287 kts | 316° |
| 2026-04-25 05:01 | -16.88869 | 145.49907 | 7857 ft | 287 kts | 316° |
| 2026-04-25 05:01 | -16.87421 | 145.48485 | 7520 ft | 286 kts | 316° |
| 2026-04-25 05:01 | -16.85972 | 145.47058 | 7173 ft | 284 kts | 316° |
| 2026-04-25 05:01 | -16.84534 | 145.45642 | 6833 ft | 283 kts | 316° |
| 2026-04-25 05:02 | -16.83111 | 145.44235 | 6508 ft | 281 kts | 316° |
| 2026-04-25 05:02 | -16.81697 | 145.42828 | 6167 ft | 281 kts | 316° |
| 2026-04-25 05:02 | -16.80292 | 145.41420 | 5793 ft | 281 kts | 316° |
| 2026-04-25 05:02 | -16.78883 | 145.40001 | 5520 ft | 277 kts | 316° |
| 2026-04-25 05:03 | -16.77516 | 145.38617 | 5248 ft | 273 kts | 316° |
| 2026-04-25 05:03 | -16.76170 | 145.37245 | 5002 ft | 269 kts | 316° |
| 2026-04-25 05:03 | -16.74699 | 145.36002 | 4759 ft | 273 kts | 333° |
| 2026-04-25 05:03 | -16.72886 | 145.35487 | 4475 ft | 268 kts | 2° |
| 2026-04-25 05:04 | -16.71086 | 145.35847 | 4293 ft | 262 kts | 23° |
| 2026-04-25 05:04 | -16.69430 | 145.36609 | 4035 ft | 258 kts | 37° |
| 2026-04-25 05:04 | -16.68231 | 145.37900 | 3754 ft | 244 kts | 66° |
| 2026-04-25 05:04 | -16.67688 | 145.39563 | 3533 ft | 239 kts | 81° |
| 2026-04-25 05:05 | -16.67349 | 145.41244 | 3397 ft | 235 kts | 82° |
| 2026-04-25 05:05 | -16.67010 | 145.42912 | 3441 ft | 237 kts | 81° |
| 2026-04-25 05:05 | -16.66658 | 145.44579 | 3620 ft | 236 kts | 81° |
| 2026-04-25 05:05 | -16.66302 | 145.46277 | 3850 ft | 240 kts | 81° |
| 2026-04-25 05:06 | -16.65953 | 145.47981 | 4088 ft | 242 kts | 81° |
| 2026-04-25 05:06 | -16.65597 | 145.49710 | 4326 ft | 245 kts | 81° |
| 2026-04-25 05:06 | -16.65242 | 145.51427 | 4560 ft | 246 kts | 81° |
| 2026-04-25 05:06 | -16.64883 | 145.53185 | 4650 ft | 246 kts | 81° |
| 2026-04-25 05:07 | -16.64527 | 145.54950 | 4491 ft | 248 kts | 81° |
| 2026-04-25 05:07 | -16.64348 | 145.56694 | 4247 ft | 242 kts | 92° |
| 2026-04-25 05:07 | -16.64414 | 145.58437 | 4003 ft | 236 kts | 96° |
| 2026-04-25 05:07 | -16.64524 | 145.60101 | 3898 ft | 226 kts | 96° |
| 2026-04-25 05:08 | -16.64618 | 145.61705 | 3877 ft | 212 kts | 96° |
| 2026-04-25 05:08 | -16.64743 | 145.63179 | 3870 ft | 201 kts | 107° |
| 2026-04-25 05:08 | -16.65429 | 145.64433 | 3876 ft | 203 kts | 135° |
| 2026-04-25 05:08 | -16.66597 | 145.65280 | 3877 ft | 204 kts | 149° |
| 2026-04-25 05:09 | -16.67874 | 145.65942 | 3864 ft | 204 kts | 152° |
| 2026-04-25 05:09 | -16.69186 | 145.66556 | 3662 ft | 206 kts | 153° |
| 2026-04-25 05:09 | -16.70508 | 145.67154 | 3380 ft | 206 kts | 153° |
| 2026-04-25 05:09 | -16.71808 | 145.67738 | 3095 ft | 203 kts | 153° |
| 2026-04-25 05:10 | -16.73064 | 145.68300 | 2835 ft | 186 kts | 153° |
| 2026-04-25 05:10 | -16.74207 | 145.68811 | 2596 ft | 171 kts | 153° |
| 2026-04-25 05:10 | -16.75268 | 145.69284 | 2374 ft | 160 kts | 153° |
| 2026-04-25 05:10 | -16.76262 | 145.69730 | 2170 ft | 155 kts | 152° |
| 2026-04-25 05:11 | -16.77269 | 145.70183 | 1963 ft | 156 kts | 153° |
| 2026-04-25 05:11 | -16.78270 | 145.70638 | 1751 ft | 158 kts | 153° |
| 2026-04-25 05:11 | -16.79263 | 145.71091 | 1599 ft | 153 kts | 152° |
| 2026-04-25 05:12 | -16.81246 | 145.72002 | 1135 ft | 154 kts | 153° |
| 2026-04-25 05:12 | -16.82229 | 145.72446 | 940 ft | 153 kts | 154° |
| 2026-04-25 05:12 | -16.83173 | 145.72856 | 743 ft | 137 kts | 154° |
| 2026-04-25 05:12 | -16.83995 | 145.73221 | 573 ft | 122 kts | 153° |
| 2026-04-25 05:13 | -16.84775 | 145.73567 | 433 ft | 122 kts | 154° |
| 2026-04-25 05:13 | -16.85549 | 145.73910 | 281 ft | 123 kts | 154° |
| 2026-04-25 05:13 | -16.86307 | 145.74252 | 874 ft | 114 kts | 155° |
| 2026-04-25 05:13 | -16.87037 | 145.74481 | 1398 ft | 117 kts | 154° |
| 2026-04-25 05:14 | -16.87890 | 145.74905 | 1662 ft | 149 kts | 142° |
| 2026-04-25 05:14 | -16.88534 | 145.75693 | 2466 ft | 147 kts | 115° |
| 2026-04-25 05:14 | -16.88720 | 145.76823 | 2956 ft | 174 kts | 92° |
| 2026-04-25 05:15 | -16.88149 | 145.79616 | 4110 ft | 216 kts | 78° |
| 2026-04-25 05:15 | -16.87750 | 145.81136 | 4983 ft | 218 kts | 80° |
| 2026-04-25 05:15 | -16.87589 | 145.82576 | 6219 ft | 194 kts | 102° |
| 2026-04-25 05:15 | -16.88024 | 145.83890 | 6747 ft | 212 kts | 120° |
| 2026-04-25 05:16 | -16.89040 | 145.85152 | 6740 ft | 243 kts | 142° |
| 2026-04-25 05:16 | -16.90560 | 145.86122 | 6375 ft | 263 kts | 151° |
| 2026-04-25 05:16 | -16.92193 | 145.87022 | 5975 ft | 264 kts | 150° |
| 2026-04-25 05:16 | -16.93798 | 145.87975 | 5753 ft | 265 kts | 148° |
| 2026-04-25 05:17 | -16.95396 | 145.88989 | 6587 ft | 275 kts | 148° |
| 2026-04-25 05:17 | -16.96998 | 145.90024 | 7886 ft | 271 kts | 148° |
| 2026-04-25 05:17 | -16.98590 | 145.91051 | 8945 ft | 275 kts | 148° |
| 2026-04-25 05:17 | -17.00224 | 145.92104 | 9833 ft | 284 kts | 148° |
| 2026-04-25 05:18 | -17.01930 | 145.93202 | 10673 ft | 295 kts | 148° |
| 2026-04-25 05:18 | -17.03719 | 145.94356 | 11324 ft | 312 kts | 149° |
| 2026-04-25 05:18 | -17.05608 | 145.95575 | 11969 ft | 327 kts | 149° |
| 2026-04-25 05:18 | -17.07585 | 145.96848 | 12519 ft | 343 kts | 149° |
| 2026-04-25 05:19 | -17.09673 | 145.98193 | 13067 ft | 359 kts | 149° |
| 2026-04-25 05:19 | -17.11830 | 145.99585 | 13828 ft | 366 kts | 149° |
| 2026-04-25 05:19 | -17.13995 | 146.00981 | 14655 ft | 371 kts | 149° |
| 2026-04-25 05:19 | -17.16223 | 146.02420 | 15426 ft | 376 kts | 150° |
| 2026-04-25 05:20 | -17.18449 | 146.03856 | 16186 ft | 380 kts | 150° |
| 2026-04-25 05:20 | -17.20700 | 146.05310 | 16904 ft | 385 kts | 151° |
| 2026-04-25 05:20 | -17.22991 | 146.06790 | 17679 ft | 388 kts | 151° |
| 2026-04-25 05:20 | -17.25295 | 146.08279 | 18352 ft | 393 kts | 151° |
| 2026-04-25 05:21 | -17.27641 | 146.09795 | 19088 ft | 397 kts | 152° |
| 2026-04-25 05:21 | -17.30006 | 146.11324 | 19810 ft | 401 kts | 152° |
| 2026-04-25 05:21 | -17.32366 | 146.12848 | 20487 ft | 405 kts | 152° |
| 2026-04-25 05:21 | -17.34780 | 146.14409 | 21213 ft | 408 kts | 152° |
| 2026-04-25 05:22 | -17.37200 | 146.15973 | 21892 ft | 411 kts | 152° |
| 2026-04-25 05:22 | -17.39660 | 146.17564 | 22518 ft | 416 kts | 152° |
| 2026-04-25 05:22 | -17.42127 | 146.19162 | 23152 ft | 419 kts | 153° |
| 2026-04-25 05:22 | -17.44597 | 146.20763 | 23796 ft | 421 kts | 153° |
| 2026-04-25 05:23 | -17.47094 | 146.22380 | 24416 ft | 423 kts | 153° |
| 2026-04-25 05:23 | -17.49599 | 146.24005 | 24988 ft | 426 kts | 154° |
| 2026-04-25 05:23 | -17.52112 | 146.25636 | 25619 ft | 427 kts | 154° |
| 2026-04-25 05:23 | -17.54672 | 146.27298 | 26219 ft | 429 kts | 154° |
| 2026-04-25 05:24 | -17.57200 | 146.28938 | 26709 ft | 433 kts | 154° |
| 2026-04-25 05:24 | -17.59800 | 146.30626 | 27240 ft | 436 kts | 155° |
| 2026-04-25 05:24 | -17.62374 | 146.32300 | 27821 ft | 437 kts | 155° |
| 2026-04-25 05:24 | -17.64955 | 146.33977 | 28329 ft | 439 kts | 155° |
| 2026-04-25 05:25 | -17.67560 | 146.35671 | 28745 ft | 444 kts | 155° |
| 2026-04-25 05:25 | -17.70181 | 146.37372 | 29229 ft | 447 kts | 155° |
| 2026-04-25 05:25 | -17.72859 | 146.39111 | 29623 ft | 451 kts | 155° |
| 2026-04-25 05:25 | -17.75541 | 146.40855 | 30023 ft | 456 kts | 155° |
| 2026-04-25 05:26 | -17.78248 | 146.42615 | 30539 ft | 457 kts | 155° |
| 2026-04-25 05:26 | -17.80910 | 146.44354 | 31265 ft | 453 kts | 155° |
| 2026-04-25 05:26 | -17.83607 | 146.46117 | 31857 ft | 452 kts | 156° |
| 2026-04-25 05:26 | -17.86291 | 146.47868 | 32366 ft | 453 kts | 156° |
| 2026-04-25 05:27 | -17.88974 | 146.49618 | 32817 ft | 455 kts | 156° |
| 2026-04-25 05:27 | -17.91695 | 146.51393 | 33467 ft | 453 kts | 156° |
| 2026-04-25 05:27 | -17.94356 | 146.53133 | 34164 ft | 450 kts | 156° |
| 2026-04-25 05:27 | -17.97016 | 146.54871 | 34708 ft | 450 kts | 156° |
| 2026-04-25 05:28 | -17.99692 | 146.56619 | 35261 ft | 450 kts | 156° |
| 2026-04-25 05:28 | -18.02323 | 146.58339 | 35854 ft | 449 kts | 156° |
| 2026-04-25 05:28 | -18.05007 | 146.60094 | 36319 ft | 450 kts | 156° |
| 2026-04-25 05:28 | -18.07666 | 146.61830 | 36859 ft | 449 kts | 156° |
| 2026-04-25 05:29 | -18.10295 | 146.63548 | 37276 ft | 450 kts | 156° |
| 2026-04-25 05:29 | -18.12970 | 146.65297 | 37709 ft | 451 kts | 156° |
| 2026-04-25 05:29 | -18.15645 | 146.67046 | 38134 ft | 451 kts | 156° |
| 2026-04-25 05:29 | -18.18286 | 146.68776 | 38585 ft | 450 kts | 156° |
| 2026-04-25 05:30 | -18.20951 | 146.70522 | 39020 ft | 450 kts | 156° |
| 2026-04-25 05:30 | -18.26285 | 146.74013 | 39033 ft | 450 kts | 156° |
| 2026-04-25 05:31 | -18.31586 | 146.77478 | 39032 ft | 447 kts | 157° |
| 2026-04-25 05:31 | -18.37048 | 146.80406 | 39036 ft | 437 kts | 168° |
| 2026-04-25 05:32 | -18.42813 | 146.82227 | 39033 ft | 427 kts | 174° |
| 2026-04-25 05:32 | -18.48595 | 146.83685 | 39034 ft | 427 kts | 175° |
| 2026-04-25 05:33 | -18.54373 | 146.85123 | 39030 ft | 426 kts | 174° |
| 2026-04-25 05:33 | -18.60128 | 146.86603 | 39033 ft | 424 kts | 174° |
| 2026-04-25 05:34 | -18.65881 | 146.88107 | 39031 ft | 425 kts | 174° |
| 2026-04-25 05:34 | -18.71612 | 146.89621 | 39030 ft | 426 kts | 174° |
| 2026-04-25 05:35 | -18.77349 | 146.91148 | 39031 ft | 425 kts | 174° |
| 2026-04-25 05:35 | -18.83107 | 146.92677 | 39029 ft | 424 kts | 174° |
| 2026-04-25 05:36 | -18.88821 | 146.94200 | 39031 ft | 424 kts | 174° |
| 2026-04-25 05:36 | -18.94542 | 146.95728 | 39031 ft | 423 kts | 174° |
| 2026-04-25 05:37 | -19.00229 | 146.97246 | 39030 ft | 420 kts | 174° |
| 2026-04-25 05:37 | -19.05939 | 146.98767 | 39040 ft | 420 kts | 174° |
| 2026-04-25 05:38 | -19.11608 | 147.00282 | 39050 ft | 418 kts | 174° |
| 2026-04-25 05:38 | -19.17279 | 147.01791 | 39060 ft | 422 kts | 175° |
| 2026-04-25 05:39 | -19.22982 | 147.03317 | 39061 ft | 418 kts | 175° |
| 2026-04-25 05:39 | -19.28640 | 147.04835 | 39069 ft | 417 kts | 175° |
| 2026-04-25 05:40 | -19.34280 | 147.06343 | 39065 ft | 421 kts | 175° |
| 2026-04-25 05:40 | -19.39950 | 147.07867 | 39070 ft | 417 kts | 175° |
| 2026-04-25 05:41 | -19.45557 | 147.09370 | 39065 ft | 417 kts | 175° |
| 2026-04-25 05:41 | -19.51175 | 147.10878 | 39061 ft | 418 kts | 175° |
| 2026-04-25 05:42 | -19.56803 | 147.12390 | 39056 ft | 413 kts | 175° |
| 2026-04-25 05:42 | -19.62442 | 147.13908 | 39050 ft | 416 kts | 175° |
| 2026-04-25 05:43 | -19.68018 | 147.15410 | 39046 ft | 415 kts | 175° |
| 2026-04-25 05:43 | -19.73661 | 147.16928 | 39043 ft | 416 kts | 176° |
| 2026-04-25 05:44 | -19.79184 | 147.18420 | 39041 ft | 410 kts | 176° |
| 2026-04-25 05:44 | -19.84758 | 147.19922 | 39042 ft | 412 kts | 176° |
| 2026-04-25 05:45 | -19.90340 | 147.21423 | 39033 ft | 413 kts | 176° |
| 2026-04-25 05:45 | -19.95920 | 147.22926 | 39036 ft | 412 kts | 176° |
| 2026-04-25 05:46 | -20.01441 | 147.24422 | 39035 ft | 409 kts | 176° |
| 2026-04-25 05:46 | -20.07030 | 147.25923 | 39036 ft | 416 kts | 176° |
| 2026-04-25 05:47 | -20.12583 | 147.27432 | 39044 ft | 409 kts | 176° |
| 2026-04-25 05:47 | -20.18120 | 147.28934 | 39050 ft | 410 kts | 176° |
| 2026-04-25 05:48 | -20.23651 | 147.30435 | 39059 ft | 406 kts | 176° |
| 2026-04-25 05:48 | -20.29122 | 147.31917 | 39068 ft | 410 kts | 176° |
| 2026-04-25 05:49 | -20.34689 | 147.33423 | 39070 ft | 412 kts | 176° |
| 2026-04-25 05:49 | -20.40209 | 147.34926 | 39074 ft | 407 kts | 176° |
| 2026-04-25 05:50 | -20.45673 | 147.36414 | 39078 ft | 407 kts | 176° |
| 2026-04-25 05:50 | -20.51168 | 147.37903 | 39074 ft | 410 kts | 176° |
| 2026-04-25 05:51 | -20.56699 | 147.39410 | 39077 ft | 408 kts | 176° |
| 2026-04-25 05:51 | -20.62207 | 147.40913 | 39090 ft | 408 kts | 176° |
| 2026-04-25 05:52 | -20.67700 | 147.42410 | 39090 ft | 405 kts | 176° |
| 2026-04-25 05:52 | -20.73158 | 147.43900 | 39097 ft | 407 kts | 176° |
| 2026-04-25 05:53 | -20.78626 | 147.45390 | 39100 ft | 404 kts | 176° |
| 2026-04-25 05:53 | -20.84093 | 147.46884 | 39099 ft | 405 kts | 176° |
| 2026-04-25 05:54 | -20.89540 | 147.48375 | 39102 ft | 404 kts | 176° |
| 2026-04-25 05:54 | -20.97758 | 147.50621 | 39108 ft | 404 kts | 176° |
| 2026-04-25 05:55 | -21.03190 | 147.52110 | 39107 ft | 405 kts | 176° |
| 2026-04-25 05:55 | -21.08707 | 147.53615 | 39107 ft | 407 kts | 176° |
| 2026-04-25 05:56 | -21.14162 | 147.55115 | 39106 ft | 403 kts | 176° |
| 2026-04-25 05:56 | -21.19629 | 147.56621 | 39110 ft | 402 kts | 176° |
| 2026-04-25 05:57 | -21.25039 | 147.58107 | 39108 ft | 404 kts | 176° |
| 2026-04-25 05:57 | -21.30509 | 147.59608 | 39112 ft | 405 kts | 176° |
| 2026-04-25 05:58 | -21.35940 | 147.61102 | 39112 ft | 401 kts | 176° |
| 2026-04-25 05:58 | -21.41340 | 147.62592 | 39116 ft | 402 kts | 176° |
| 2026-04-25 05:59 | -21.46795 | 147.64090 | 39110 ft | 403 kts | 176° |
| 2026-04-25 05:59 | -21.52253 | 147.65596 | 39112 ft | 401 kts | 175° |
| 2026-04-25 06:00 | -21.57633 | 147.67085 | 39111 ft | 400 kts | 175° |
| 2026-04-25 06:00 | -21.63045 | 147.68579 | 39119 ft | 400 kts | 175° |
| 2026-04-25 06:01 | -21.68429 | 147.70067 | 39120 ft | 398 kts | 175° |
| 2026-04-25 06:01 | -21.73795 | 147.71555 | 39120 ft | 397 kts | 175° |
| 2026-04-25 06:02 | -21.79144 | 147.73033 | 39118 ft | 397 kts | 175° |
| 2026-04-25 06:02 | -21.84495 | 147.74516 | 39127 ft | 398 kts | 175° |
| 2026-04-25 06:03 | -21.89831 | 147.75995 | 39125 ft | 397 kts | 175° |
| 2026-04-25 06:03 | -21.95193 | 147.77484 | 39127 ft | 395 kts | 175° |
| 2026-04-25 06:04 | -22.00533 | 147.78964 | 39129 ft | 398 kts | 175° |
| 2026-04-25 06:04 | -22.05889 | 147.80455 | 39128 ft | 394 kts | 175° |
| 2026-04-25 06:05 | -22.11197 | 147.81937 | 39129 ft | 394 kts | 175° |
| 2026-04-25 06:05 | -22.16554 | 147.83423 | 39132 ft | 396 kts | 175° |
| 2026-04-25 06:06 | -22.21843 | 147.84901 | 39128 ft | 389 kts | 175° |
| 2026-04-25 06:06 | -22.27163 | 147.86380 | 39131 ft | 396 kts | 174° |
| 2026-04-25 06:07 | -22.32448 | 147.87857 | 39123 ft | 392 kts | 175° |
| 2026-04-25 06:07 | -22.37701 | 147.89327 | 39118 ft | 387 kts | 174° |
| 2026-04-25 06:08 | -22.42923 | 147.90784 | 39128 ft | 389 kts | 174° |
| 2026-04-25 06:08 | -22.48201 | 147.92256 | 39131 ft | 391 kts | 174° |
| 2026-04-25 06:09 | -22.53445 | 147.93726 | 39131 ft | 386 kts | 174° |
| 2026-04-25 06:09 | -22.58678 | 147.95192 | 39131 ft | 389 kts | 174° |
| 2026-04-25 06:10 | -22.63913 | 147.96660 | 39132 ft | 388 kts | 174° |
| 2026-04-25 06:10 | -22.69168 | 147.98137 | 39137 ft | 387 kts | 174° |
| 2026-04-25 06:11 | -22.74363 | 147.99596 | 39144 ft | 384 kts | 174° |
| 2026-04-25 06:11 | -22.79577 | 148.01060 | 39150 ft | 388 kts | 174° |
| 2026-04-25 06:12 | -22.84780 | 148.02527 | 39145 ft | 383 kts | 173° |
| 2026-04-25 06:12 | -22.89927 | 148.03979 | 39143 ft | 382 kts | 173° |
| 2026-04-25 06:13 | -22.95080 | 148.05426 | 39145 ft | 383 kts | 173° |
| 2026-04-25 06:14 | -23.02825 | 148.07603 | 39134 ft | 383 kts | 174° |
| 2026-04-25 06:14 | -23.07993 | 148.09064 | 39141 ft | 379 kts | 174° |
| 2026-04-25 06:15 | -23.13127 | 148.10513 | 39142 ft | 382 kts | 173° |
| 2026-04-25 06:15 | -23.18231 | 148.11955 | 39136 ft | 376 kts | 174° |
| 2026-04-25 06:16 | -23.23298 | 148.13384 | 39136 ft | 379 kts | 173° |
| 2026-04-25 06:16 | -23.28404 | 148.14827 | 39134 ft | 379 kts | 174° |
| 2026-04-25 06:17 | -23.33480 | 148.16270 | 39134 ft | 376 kts | 174° |
| 2026-04-25 06:17 | -23.38583 | 148.17715 | 39135 ft | 379 kts | 174° |
| 2026-04-25 06:18 | -23.43650 | 148.19162 | 39133 ft | 373 kts | 174° |
| 2026-04-25 06:18 | -23.48716 | 148.20599 | 39133 ft | 379 kts | 174° |
| 2026-04-25 06:19 | -23.53809 | 148.22044 | 39135 ft | 377 kts | 174° |
| 2026-04-25 06:19 | -23.58846 | 148.23482 | 39138 ft | 374 kts | 174° |
| 2026-04-25 06:20 | -23.63884 | 148.24918 | 39139 ft | 373 kts | 174° |
| 2026-04-25 06:20 | -23.68925 | 148.26353 | 39142 ft | 373 kts | 174° |
| 2026-04-25 06:21 | -23.73987 | 148.27791 | 39143 ft | 377 kts | 174° |
| 2026-04-25 06:21 | -23.79020 | 148.29233 | 39142 ft | 370 kts | 174° |
| 2026-04-25 06:22 | -23.84049 | 148.30667 | 39144 ft | 375 kts | 174° |
| 2026-04-25 06:22 | -23.89053 | 148.32100 | 39144 ft | 370 kts | 174° |
| 2026-04-25 06:23 | -23.94101 | 148.33533 | 39147 ft | 378 kts | 175° |
| 2026-04-25 06:23 | -23.99154 | 148.34984 | 39147 ft | 372 kts | 174° |
| 2026-04-25 06:24 | -24.04171 | 148.36424 | 39149 ft | 374 kts | 174° |
| 2026-04-25 06:24 | -24.09250 | 148.37878 | 39150 ft | 377 kts | 174° |
| 2026-04-25 06:25 | -24.14344 | 148.39343 | 39151 ft | 377 kts | 175° |
| 2026-04-25 06:25 | -24.19406 | 148.40799 | 39155 ft | 374 kts | 175° |
| 2026-04-25 06:26 | -24.24405 | 148.42238 | 39158 ft | 373 kts | 174° |
| 2026-04-25 06:26 | -24.29465 | 148.43689 | 39162 ft | 378 kts | 174° |
| 2026-04-25 06:27 | -24.34555 | 148.45158 | 39164 ft | 374 kts | 174° |
| 2026-04-25 06:27 | -24.39618 | 148.46617 | 39167 ft | 377 kts | 174° |
| 2026-04-25 06:28 | -24.44697 | 148.48082 | 39166 ft | 379 kts | 175° |
| 2026-04-25 06:28 | -24.49829 | 148.49565 | 39163 ft | 377 kts | 174° |
| 2026-04-25 06:29 | -24.54918 | 148.51033 | 39165 ft | 378 kts | 174° |
| 2026-04-25 06:29 | -24.60001 | 148.52502 | 39167 ft | 379 kts | 174° |
| 2026-04-25 06:30 | -24.65160 | 148.53990 | 39167 ft | 381 kts | 174° |
| 2026-04-25 06:30 | -24.70288 | 148.55476 | 39173 ft | 381 kts | 174° |
| 2026-04-25 06:31 | -24.75430 | 148.56969 | 39176 ft | 382 kts | 174° |
| 2026-04-25 06:31 | -24.80587 | 148.58467 | 39174 ft | 383 kts | 174° |
| 2026-04-25 06:32 | -24.85733 | 148.59963 | 39177 ft | 382 kts | 174° |
| 2026-04-25 06:32 | -24.90902 | 148.61464 | 39174 ft | 384 kts | 174° |
| 2026-04-25 06:33 | -24.96048 | 148.62959 | 39179 ft | 382 kts | 173° |
| 2026-04-25 06:33 | -25.01211 | 148.64467 | 39179 ft | 383 kts | 173° |
| 2026-04-25 06:34 | -25.06419 | 148.65982 | 39177 ft | 387 kts | 173° |
| 2026-04-25 06:34 | -25.11613 | 148.67496 | 39188 ft | 387 kts | 173° |
| 2026-04-25 06:35 | -25.16847 | 148.69025 | 39187 ft | 386 kts | 173° |
| 2026-04-25 06:35 | -25.22049 | 148.70546 | 39193 ft | 388 kts | 173° |
| 2026-04-25 06:36 | -25.27301 | 148.72081 | 39191 ft | 390 kts | 173° |
| 2026-04-25 06:36 | -25.32517 | 148.73612 | 39192 ft | 387 kts | 173° |
| 2026-04-25 06:37 | -25.37758 | 148.75146 | 39196 ft | 388 kts | 173° |
| 2026-04-25 06:37 | -25.43009 | 148.76685 | 39198 ft | 390 kts | 173° |
| 2026-04-25 06:38 | -25.48234 | 148.78218 | 39202 ft | 389 kts | 173° |
| 2026-04-25 06:38 | -25.53517 | 148.79768 | 39203 ft | 390 kts | 172° |
| 2026-04-25 06:39 | -25.58760 | 148.81311 | 39207 ft | 393 kts | 172° |
| 2026-04-25 06:39 | -25.64044 | 148.82867 | 39207 ft | 392 kts | 172° |
| 2026-04-25 06:40 | -25.69317 | 148.84422 | 39209 ft | 392 kts | 172° |
| 2026-04-25 06:40 | -25.74576 | 148.85973 | 39206 ft | 392 kts | 172° |
| 2026-04-25 06:41 | -25.79887 | 148.87538 | 39213 ft | 395 kts | 172° |
| 2026-04-25 06:41 | -25.85200 | 148.89108 | 39211 ft | 394 kts | 172° |
| 2026-04-25 06:42 | -25.90490 | 148.90672 | 39212 ft | 395 kts | 172° |
| 2026-04-25 06:42 | -25.95805 | 148.92247 | 39215 ft | 394 kts | 172° |
| 2026-04-25 06:43 | -26.01107 | 148.93819 | 39215 ft | 396 kts | 172° |
| 2026-04-25 06:43 | -26.06436 | 148.95398 | 39213 ft | 396 kts | 172° |
| 2026-04-25 06:44 | -26.11813 | 148.96992 | 39222 ft | 397 kts | 172° |
| 2026-04-25 06:44 | -26.17120 | 148.98570 | 39224 ft | 397 kts | 172° |
| 2026-04-25 06:45 | -26.22464 | 149.00159 | 39223 ft | 398 kts | 172° |
| 2026-04-25 06:45 | -26.27827 | 149.01755 | 39224 ft | 397 kts | 172° |
| 2026-04-25 06:46 | -26.33174 | 149.03349 | 39222 ft | 397 kts | 172° |
| 2026-04-25 06:46 | -26.38525 | 149.04991 | 39218 ft | 401 kts | 169° |
| 2026-04-25 06:47 | -26.43626 | 149.07799 | 39215 ft | 421 kts | 152° |
| 2026-04-25 06:47 | -26.47867 | 149.12448 | 39217 ft | 436 kts | 137° |
| 2026-04-25 06:47 | -26.49566 | 149.15253 | 39207 ft | 448 kts | 128° |
| 2026-04-25 06:48 | -26.50899 | 149.18419 | 39215 ft | 455 kts | 121° |
| 2026-04-25 06:48 | -26.53081 | 149.25124 | 39206 ft | 463 kts | 117° |
| 2026-04-25 06:49 | -26.55107 | 149.31928 | 39212 ft | 461 kts | 117° |
| 2026-04-25 06:49 | -26.57137 | 149.38695 | 39216 ft | 460 kts | 117° |
| 2026-04-25 06:50 | -26.59202 | 149.45451 | 39216 ft | 459 kts | 117° |
| 2026-04-25 06:50 | -26.61277 | 149.52182 | 39210 ft | 458 kts | 117° |
| 2026-04-25 06:51 | -26.63363 | 149.58916 | 39214 ft | 459 kts | 117° |
| 2026-04-25 06:51 | -26.65428 | 149.65593 | 39209 ft | 457 kts | 117° |
| 2026-04-25 06:52 | -26.67505 | 149.72302 | 39212 ft | 459 kts | 117° |
| 2026-04-25 06:52 | -26.69590 | 149.79056 | 39219 ft | 459 kts | 116° |
| 2026-04-25 06:53 | -26.71669 | 149.85809 | 39127 ft | 460 kts | 116° |
| 2026-04-25 06:53 | -26.72703 | 149.89169 | 38637 ft | 461 kts | 116° |
| 2026-04-25 06:53 | -26.73748 | 149.92572 | 37895 ft | 461 kts | 116° |
| 2026-04-25 06:53 | -26.74779 | 149.95932 | 37154 ft | 461 kts | 116° |
| 2026-04-25 06:54 | -26.75819 | 149.99326 | 36414 ft | 460 kts | 116° |
| 2026-04-25 06:54 | -26.76844 | 150.02678 | 35682 ft | 458 kts | 116° |
| 2026-04-25 06:54 | -26.77863 | 150.06015 | 34957 ft | 457 kts | 116° |
| 2026-04-25 06:54 | -26.78881 | 150.09351 | 34234 ft | 455 kts | 116° |
| 2026-04-25 06:55 | -26.79900 | 150.12692 | 33510 ft | 455 kts | 116° |
| 2026-04-25 06:55 | -26.80924 | 150.16049 | 32845 ft | 454 kts | 115° |
| 2026-04-25 06:55 | -26.81942 | 150.19388 | 32182 ft | 454 kts | 115° |
| 2026-04-25 06:55 | -26.82952 | 150.22697 | 31519 ft | 455 kts | 115° |
| 2026-04-25 06:56 | -26.83983 | 150.26079 | 30844 ft | 455 kts | 115° |
| 2026-04-25 06:56 | -26.84998 | 150.29414 | 30177 ft | 455 kts | 115° |
| 2026-04-25 06:56 | -26.86010 | 150.32744 | 29514 ft | 456 kts | 115° |
| 2026-04-25 06:56 | -26.87032 | 150.36110 | 28856 ft | 456 kts | 115° |
| 2026-04-25 06:57 | -26.88039 | 150.39432 | 28206 ft | 456 kts | 114° |
| 2026-04-25 06:57 | -26.89059 | 150.42799 | 27549 ft | 456 kts | 114° |
| 2026-04-25 06:57 | -26.90073 | 150.46150 | 26895 ft | 457 kts | 113° |
| 2026-04-25 06:57 | -26.91087 | 150.49506 | 26242 ft | 456 kts | 113° |
| 2026-04-25 06:58 | -26.92098 | 150.52853 | 25587 ft | 456 kts | 112° |
| 2026-04-25 06:58 | -26.93118 | 150.56239 | 24923 ft | 455 kts | 112° |
| 2026-04-25 06:58 | -26.94118 | 150.59561 | 24255 ft | 447 kts | 112° |
| 2026-04-25 06:58 | -26.95100 | 150.62834 | 23577 ft | 439 kts | 111° |
| 2026-04-25 06:59 | -26.96056 | 150.66022 | 22887 ft | 432 kts | 111° |
| 2026-04-25 06:59 | -26.97010 | 150.69202 | 22180 ft | 425 kts | 111° |
| 2026-04-25 06:59 | -26.97932 | 150.72276 | 21485 ft | 418 kts | 111° |
| 2026-04-25 06:59 | -26.98852 | 150.75345 | 20788 ft | 411 kts | 111° |
| 2026-04-25 07:00 | -26.99752 | 150.78351 | 20095 ft | 405 kts | 110° |
| 2026-04-25 07:00 | -27.00641 | 150.81320 | 19412 ft | 399 kts | 110° |
| 2026-04-25 07:00 | -27.01504 | 150.84203 | 18735 ft | 393 kts | 110° |
| 2026-04-25 07:00 | -27.02367 | 150.87093 | 18315 ft | 379 kts | 110° |
| 2026-04-25 07:01 | -27.03171 | 150.89793 | 18250 ft | 358 kts | 110° |
| 2026-04-25 07:01 | -27.03934 | 150.92366 | 18248 ft | 337 kts | 111° |
| 2026-04-25 07:01 | -27.04652 | 150.94780 | 18243 ft | 319 kts | 111° |
| 2026-04-25 07:01 | -27.05342 | 150.97096 | 18245 ft | 311 kts | 111° |
| 2026-04-25 07:02 | -27.06023 | 150.99379 | 18246 ft | 301 kts | 111° |
| 2026-04-25 07:02 | -27.06683 | 151.01587 | 18249 ft | 300 kts | 111° |
| 2026-04-25 07:02 | -27.07349 | 151.03815 | 18245 ft | 302 kts | 111° |
| 2026-04-25 07:02 | -27.08014 | 151.06044 | 18247 ft | 301 kts | 111° |
| 2026-04-25 07:03 | -27.08677 | 151.08273 | 18075 ft | 306 kts | 111° |
| 2026-04-25 07:03 | -27.09357 | 151.10559 | 17500 ft | 309 kts | 111° |
| 2026-04-25 07:03 | -27.10036 | 151.12846 | 16757 ft | 311 kts | 110° |
| 2026-04-25 07:03 | -27.10716 | 151.15141 | 16014 ft | 310 kts | 110° |
| 2026-04-25 07:04 | -27.11385 | 151.17404 | 15284 ft | 308 kts | 110° |
| 2026-04-25 07:04 | -27.12061 | 151.19690 | 14541 ft | 306 kts | 110° |
| 2026-04-25 07:04 | -27.12723 | 151.21930 | 13806 ft | 304 kts | 110° |
| 2026-04-25 07:04 | -27.13378 | 151.24142 | 13082 ft | 301 kts | 109° |
| 2026-04-25 07:05 | -27.14037 | 151.26373 | 12347 ft | 299 kts | 109° |
| 2026-04-25 07:05 | -27.14683 | 151.28561 | 11646 ft | 296 kts | 109° |
| 2026-04-25 07:05 | -27.15321 | 151.30721 | 11010 ft | 292 kts | 109° |
| 2026-04-25 07:05 | -27.15938 | 151.32812 | 10481 ft | 284 kts | 109° |
| 2026-04-25 07:06 | -27.16544 | 151.34868 | 9993 ft | 276 kts | 109° |
| 2026-04-25 07:06 | -27.17141 | 151.36896 | 9506 ft | 269 kts | 108° |
| 2026-04-25 07:06 | -27.17715 | 151.38847 | 9023 ft | 264 kts | 109° |
| 2026-04-25 07:06 | -27.18288 | 151.40796 | 8529 ft | 258 kts | 109° |
| 2026-04-25 07:07 | -27.18843 | 151.42682 | 8041 ft | 254 kts | 109° |
| 2026-04-25 07:07 | -27.19389 | 151.44540 | 7559 ft | 250 kts | 109° |
| 2026-04-25 07:07 | -27.19927 | 151.46372 | 7073 ft | 246 kts | 109° |
| 2026-04-25 07:07 | -27.20457 | 151.48180 | 6580 ft | 243 kts | 109° |
| 2026-04-25 07:08 | -27.20981 | 151.49965 | 6091 ft | 240 kts | 109° |
| 2026-04-25 07:08 | -27.21499 | 151.51727 | 5598 ft | 237 kts | 109° |
| 2026-04-25 07:08 | -27.22009 | 151.53467 | 5109 ft | 235 kts | 109° |
| 2026-04-25 07:08 | -27.22517 | 151.55202 | 4619 ft | 233 kts | 109° |
| 2026-04-25 07:09 | -27.23021 | 151.56921 | 4129 ft | 230 kts | 108° |
| 2026-04-25 07:09 | -27.23517 | 151.58615 | 3639 ft | 229 kts | 108° |
| 2026-04-25 07:09 | -27.24032 | 151.60284 | 3171 ft | 226 kts | 113° |
| 2026-04-25 07:09 | -27.24944 | 151.61684 | 2999 ft | 220 kts | 136° |
| 2026-04-25 07:10 | -27.26133 | 151.62672 | 2994 ft | 205 kts | 141° |
| 2026-04-25 07:10 | -27.27285 | 151.63592 | 3002 ft | 198 kts | 140° |
| 2026-04-25 07:10 | -27.28398 | 151.64493 | 3015 ft | 194 kts | 141° |
| 2026-04-25 07:10 | -27.29519 | 151.65366 | 3005 ft | 198 kts | 141° |
| 2026-04-25 07:11 | -27.30651 | 151.66251 | 3000 ft | 196 kts | 141° |
| 2026-04-25 07:11 | -27.31745 | 151.67096 | 2996 ft | 183 kts | 140° |
| 2026-04-25 07:11 | -27.32735 | 151.67866 | 2995 ft | 164 kts | 140° |
| 2026-04-25 07:11 | -27.33639 | 151.68576 | 2905 ft | 154 kts | 140° |
| 2026-04-25 07:12 | -27.34503 | 151.69240 | 2737 ft | 145 kts | 140° |
| 2026-04-25 07:12 | -27.36041 | 151.70428 | 2357 ft | 127 kts | 139° |
| 2026-04-25 07:12 | -27.36760 | 151.70993 | 2194 ft | 128 kts | 140° |
| 2026-04-25 07:13 | -27.37493 | 151.71564 | 2024 ft | 126 kts | 140° |
| 2026-04-25 07:13 | -27.38218 | 151.72128 | 1857 ft | 128 kts | 141° |
| 2026-04-25 07:13 | -27.38967 | 151.72710 | 1687 ft | 130 kts | 142° |
| 2026-04-25 07:13 | -27.39731 | 151.73291 | 1800 ft | 136 kts | 143° |
| 2026-04-25 07:14 | -27.40492 | 151.73846 | 2496 ft | 127 kts | 141° |
| 2026-04-25 07:14 | -27.41227 | 151.74391 | 3066 ft | 132 kts | 137° |
| 2026-04-25 07:14 | -27.41670 | 151.75217 | 3784 ft | 134 kts | 98° |
| 2026-04-25 07:14 | -27.41464 | 151.76320 | 4305 ft | 162 kts | 70° |
| 2026-04-25 07:15 | -27.40719 | 151.77370 | 4733 ft | 184 kts | 51° |
| 2026-04-25 07:15 | -27.39557 | 151.78200 | 4681 ft | 203 kts | 34° |
| 2026-04-25 07:15 | -27.38311 | 151.78911 | 4653 ft | 196 kts | 36° |
| 2026-04-25 07:15 | -27.37159 | 151.79623 | 4649 ft | 184 kts | 39° |
| 2026-04-25 07:16 | -27.36018 | 151.80335 | 4684 ft | 192 kts | 33° |
| 2026-04-25 07:16 | -27.34764 | 151.80907 | 4694 ft | 195 kts | 30° |
| 2026-04-25 07:16 | -27.33439 | 151.81491 | 4699 ft | 224 kts | 29° |
| 2026-04-25 07:16 | -27.31865 | 151.82240 | 4693 ft | 255 kts | 30° |
| 2026-04-25 07:17 | -27.30202 | 151.83050 | 4695 ft | 263 kts | 30° |
| 2026-04-25 07:17 | -27.28514 | 151.83874 | 4698 ft | 264 kts | 29° |
| 2026-04-25 07:17 | -27.26817 | 151.84698 | 4692 ft | 265 kts | 28° |
| 2026-04-25 07:17 | -27.24993 | 151.85167 | 4692 ft | 275 kts | 6° |
| 2026-04-25 07:18 | -27.23098 | 151.84676 | 4804 ft | 287 kts | 336° |
| 2026-04-25 07:18 | -27.21568 | 151.83217 | 5287 ft | 297 kts | 307° |
| 2026-04-25 07:18 | -27.20699 | 151.81122 | 5907 ft | 302 kts | 285° |
| 2026-04-25 07:18 | -27.20203 | 151.78838 | 6522 ft | 302 kts | 281° |
| 2026-04-25 07:19 | -27.19757 | 151.76529 | 7141 ft | 304 kts | 281° |
| 2026-04-25 07:19 | -27.19316 | 151.74205 | 7755 ft | 308 kts | 281° |
| 2026-04-25 07:19 | -27.18878 | 151.71866 | 8366 ft | 309 kts | 281° |
| 2026-04-25 07:19 | -27.18442 | 151.69511 | 8983 ft | 310 kts | 281° |
| 2026-04-25 07:20 | -27.18098 | 151.67085 | 9194 ft | 323 kts | 269° |
| 2026-04-25 07:20 | -27.18482 | 151.64610 | 8830 ft | 319 kts | 245° |
| 2026-04-25 07:20 | -27.19384 | 151.62495 | 9382 ft | 286 kts | 240° |
| 2026-04-25 07:20 | -27.20309 | 151.60542 | 9698 ft | 296 kts | 235° |
| 2026-04-25 07:21 | -27.21444 | 151.58499 | 9624 ft | 324 kts | 233° |
| 2026-04-25 07:21 | -27.22646 | 151.56366 | 10699 ft | 330 kts | 234° |
| 2026-04-25 07:21 | -27.23864 | 151.54129 | 11491 ft | 346 kts | 235° |
| 2026-04-25 07:21 | -27.25129 | 151.51733 | 12288 ft | 361 kts | 236° |
| 2026-04-25 07:22 | -27.26400 | 151.49280 | 13279 ft | 368 kts | 236° |
| 2026-04-25 07:22 | -27.27674 | 151.46800 | 14349 ft | 372 kts | 236° |
| 2026-04-25 07:22 | -27.28968 | 151.44276 | 15365 ft | 377 kts | 236° |
| 2026-04-25 07:22 | -27.30274 | 151.41730 | 16356 ft | 381 kts | 236° |
| 2026-04-25 07:23 | -27.31588 | 151.39171 | 17343 ft | 384 kts | 236° |
| 2026-04-25 07:23 | -27.32936 | 151.36546 | 18283 ft | 389 kts | 236° |
| 2026-04-25 07:23 | -27.34282 | 151.33926 | 19197 ft | 393 kts | 236° |
| 2026-04-25 07:23 | -27.35648 | 151.31270 | 20075 ft | 397 kts | 236° |
| 2026-04-25 07:24 | -27.37036 | 151.28569 | 20984 ft | 400 kts | 237° |
| 2026-04-25 07:24 | -27.38413 | 151.25888 | 21860 ft | 403 kts | 237° |
| 2026-04-25 07:24 | -27.39810 | 151.23164 | 22681 ft | 406 kts | 237° |
| 2026-04-25 07:24 | -27.41230 | 151.20395 | 23470 ft | 410 kts | 237° |
| 2026-04-25 07:25 | -27.42643 | 151.17636 | 24286 ft | 412 kts | 237° |
| 2026-04-25 07:25 | -27.44083 | 151.14819 | 25077 ft | 413 kts | 236° |
| 2026-04-25 07:25 | -27.45511 | 151.12027 | 25799 ft | 415 kts | 236° |
| 2026-04-25 07:25 | -27.46941 | 151.09229 | 26560 ft | 415 kts | 236° |
| 2026-04-25 07:26 | -27.48372 | 151.06427 | 27174 ft | 419 kts | 236° |
| 2026-04-25 07:26 | -27.49837 | 151.03558 | 27859 ft | 421 kts | 235° |
| 2026-04-25 07:26 | -27.51291 | 151.00708 | 28431 ft | 424 kts | 235° |
| 2026-04-25 07:26 | -27.52752 | 150.97842 | 29117 ft | 425 kts | 234° |
| 2026-04-25 07:27 | -27.54229 | 150.94942 | 29735 ft | 426 kts | 234° |
| 2026-04-25 07:27 | -27.55710 | 150.92033 | 30335 ft | 429 kts | 234° |
| 2026-04-25 07:27 | -27.57208 | 150.89092 | 30789 ft | 434 kts | 234° |
| 2026-04-25 07:27 | -27.58710 | 150.86139 | 31360 ft | 436 kts | 234° |
| 2026-04-25 07:28 | -27.60219 | 150.83166 | 31970 ft | 437 kts | 235° |
| 2026-04-25 07:28 | -27.61700 | 150.80240 | 32855 ft | 430 kts | 234° |
| 2026-04-25 07:28 | -27.63182 | 150.77309 | 33641 ft | 426 kts | 234° |
| 2026-04-25 07:28 | -27.64640 | 150.74426 | 34309 ft | 424 kts | 235° |
| 2026-04-25 07:29 | -27.66080 | 150.71579 | 35011 ft | 422 kts | 235° |
| 2026-04-25 07:29 | -27.67530 | 150.68712 | 35708 ft | 419 kts | 235° |
| 2026-04-25 07:29 | -27.68963 | 150.65877 | 36365 ft | 416 kts | 236° |
| 2026-04-25 07:29 | -27.70387 | 150.63058 | 37047 ft | 412 kts | 236° |
| 2026-04-25 07:30 | -27.71796 | 150.60268 | 37673 ft | 409 kts | 236° |
| 2026-04-25 07:30 | -27.73200 | 150.57487 | 38215 ft | 408 kts | 236° |
| 2026-04-25 07:30 | -27.74583 | 150.54747 | 38746 ft | 406 kts | 236° |
| 2026-04-25 07:30 | -27.75974 | 150.51990 | 39220 ft | 405 kts | 236° |
| 2026-04-25 07:31 | -27.77377 | 150.49211 | 39681 ft | 405 kts | 236° |
| 2026-04-25 07:31 | -27.78764 | 150.46460 | 40083 ft | 405 kts | 236° |
| 2026-04-25 07:31 | -27.80154 | 150.43703 | 40254 ft | 409 kts | 236° |
| 2026-04-25 07:31 | -27.81557 | 150.40916 | 40258 ft | 409 kts | 236° |
| 2026-04-25 07:32 | -27.84343 | 150.35365 | 40252 ft | 405 kts | 236° |
| 2026-04-25 07:32 | -27.87130 | 150.29805 | 40254 ft | 405 kts | 237° |
| 2026-04-25 07:33 | -27.89905 | 150.24268 | 40253 ft | 406 kts | 236° |
| 2026-04-25 07:33 | -27.92657 | 150.18768 | 40248 ft | 405 kts | 237° |
| 2026-04-25 07:34 | -27.95433 | 150.13217 | 40247 ft | 405 kts | 237° |
| 2026-04-25 07:34 | -27.98199 | 150.07677 | 40249 ft | 406 kts | 237° |
| 2026-04-25 07:35 | -28.00963 | 150.02132 | 40242 ft | 406 kts | 236° |
| 2026-04-25 07:35 | -28.03737 | 149.96556 | 40234 ft | 405 kts | 237° |
| 2026-04-25 07:36 | -28.06482 | 149.91036 | 40240 ft | 407 kts | 237° |
| 2026-04-25 07:36 | -28.09263 | 149.85435 | 40234 ft | 406 kts | 237° |
| 2026-04-25 07:37 | -28.12084 | 149.79907 | 40235 ft | 404 kts | 234° |
| 2026-04-25 07:37 | -28.15780 | 149.75240 | 40238 ft | 397 kts | 216° |
| 2026-04-25 07:38 | -28.20530 | 149.72119 | 40239 ft | 397 kts | 205° |
| 2026-04-25 07:38 | -28.25864 | 149.70444 | 40238 ft | 402 kts | 187° |
| 2026-04-25 07:39 | -28.31471 | 149.70691 | 40238 ft | 406 kts | 175° |
| 2026-04-25 07:39 | -28.36995 | 149.72046 | 40241 ft | 409 kts | 169° |
| 2026-04-25 07:40 | -28.42519 | 149.73737 | 40241 ft | 410 kts | 169° |
| 2026-04-25 07:40 | -28.48003 | 149.75413 | 40236 ft | 410 kts | 169° |
| 2026-04-25 07:41 | -28.53522 | 149.77060 | 40242 ft | 410 kts | 169° |
| 2026-04-25 07:41 | -28.59082 | 149.78697 | 40239 ft | 411 kts | 169° |
| 2026-04-25 07:42 | -28.64612 | 149.80319 | 40239 ft | 410 kts | 169° |
| 2026-04-25 07:42 | -28.70144 | 149.81940 | 40238 ft | 410 kts | 169° |
| 2026-04-25 07:43 | -28.75672 | 149.83560 | 40241 ft | 413 kts | 169° |
| 2026-04-25 07:43 | -28.81241 | 149.85194 | 40240 ft | 412 kts | 169° |
| 2026-04-25 07:44 | -28.86777 | 149.86821 | 40238 ft | 412 kts | 169° |
| 2026-04-25 07:44 | -28.92316 | 149.88449 | 40239 ft | 413 kts | 169° |
| 2026-04-25 07:45 | -28.97892 | 149.90093 | 40241 ft | 412 kts | 169° |
| 2026-04-25 07:45 | -29.03452 | 149.91731 | 40239 ft | 413 kts | 169° |
| 2026-04-25 07:46 | -29.08986 | 149.93365 | 40240 ft | 412 kts | 169° |
| 2026-04-25 07:46 | -29.14585 | 149.95021 | 40244 ft | 412 kts | 168° |
| 2026-04-25 07:47 | -29.20136 | 149.96663 | 40256 ft | 413 kts | 168° |
| 2026-04-25 07:47 | -29.25693 | 149.98308 | 40261 ft | 412 kts | 168° |
| 2026-04-25 07:48 | -29.31261 | 149.99959 | 40262 ft | 414 kts | 168° |
| 2026-04-25 07:48 | -29.36837 | 150.01614 | 40260 ft | 413 kts | 168° |
| 2026-04-25 07:49 | -29.42280 | 150.03720 | 40256 ft | 416 kts | 161° |
| 2026-04-25 07:49 | -29.47565 | 150.06499 | 40251 ft | 418 kts | 158° |
| 2026-04-25 07:50 | -29.52785 | 150.09418 | 40255 ft | 419 kts | 158° |
| 2026-04-25 07:50 | -29.58018 | 150.12344 | 40264 ft | 417 kts | 158° |
| 2026-04-25 07:51 | -29.63262 | 150.15262 | 40271 ft | 417 kts | 158° |
| 2026-04-25 07:51 | -29.68481 | 150.18155 | 40280 ft | 417 kts | 158° |
| 2026-04-25 07:52 | -29.73700 | 150.21048 | 40291 ft | 419 kts | 158° |
| 2026-04-25 07:52 | -29.78964 | 150.23967 | 40303 ft | 419 kts | 158° |
| 2026-04-25 07:53 | -29.84186 | 150.26868 | 40308 ft | 418 kts | 158° |
| 2026-04-25 07:53 | -29.89441 | 150.29788 | 40310 ft | 418 kts | 158° |
| 2026-04-25 07:54 | -29.94670 | 150.32700 | 40312 ft | 418 kts | 158° |
| 2026-04-25 07:54 | -29.99915 | 150.35622 | 40322 ft | 417 kts | 158° |
| 2026-04-25 07:55 | -30.05162 | 150.38548 | 40324 ft | 418 kts | 157° |
| 2026-04-25 07:55 | -30.10397 | 150.41473 | 40326 ft | 418 kts | 158° |
| 2026-04-25 07:56 | -30.15643 | 150.44406 | 40323 ft | 417 kts | 157° |
| 2026-04-25 07:56 | -30.20853 | 150.47324 | 40325 ft | 417 kts | 157° |
| 2026-04-25 07:57 | -30.26082 | 150.50253 | 40324 ft | 418 kts | 157° |
| 2026-04-25 07:57 | -30.31329 | 150.53197 | 40325 ft | 419 kts | 157° |
| 2026-04-25 07:58 | -30.36545 | 150.56128 | 40325 ft | 417 kts | 157° |
| 2026-04-25 07:58 | -30.41774 | 150.59071 | 40312 ft | 418 kts | 157° |
| 2026-04-25 07:59 | -30.47004 | 150.62018 | 40318 ft | 418 kts | 157° |
| 2026-04-25 07:59 | -30.52219 | 150.64960 | 40315 ft | 417 kts | 157° |
| 2026-04-25 08:00 | -30.57468 | 150.67921 | 40314 ft | 419 kts | 156° |
| 2026-04-25 08:00 | -30.62705 | 150.70882 | 40317 ft | 418 kts | 156° |
| 2026-04-25 08:01 | -30.67913 | 150.73830 | 40312 ft | 418 kts | 156° |
| 2026-04-25 08:01 | -30.73156 | 150.76800 | 40317 ft | 419 kts | 156° |
| 2026-04-25 08:02 | -30.78365 | 150.79755 | 40319 ft | 418 kts | 156° |
| 2026-04-25 08:02 | -30.83582 | 150.82719 | 39826 ft | 418 kts | 156° |
| 2026-04-25 08:03 | -30.86219 | 150.84218 | 38671 ft | 426 kts | 156° |
| 2026-04-25 08:03 | -30.88868 | 150.85724 | 37982 ft | 422 kts | 155° |
| 2026-04-25 08:03 | -30.91491 | 150.87218 | 37552 ft | 414 kts | 155° |
| 2026-04-25 08:03 | -30.94044 | 150.88673 | 37028 ft | 409 kts | 155° |
| 2026-04-25 08:04 | -30.96586 | 150.90123 | 36450 ft | 405 kts | 155° |
| 2026-04-25 08:04 | -30.99112 | 150.91563 | 35841 ft | 405 kts | 155° |
| 2026-04-25 08:04 | -31.01621 | 150.92996 | 35202 ft | 404 kts | 155° |
| 2026-04-25 08:04 | -31.04127 | 150.94426 | 34533 ft | 403 kts | 155° |
| 2026-04-25 08:05 | -31.06648 | 150.95866 | 33848 ft | 403 kts | 154° |
| 2026-04-25 08:05 | -31.09148 | 150.97295 | 33196 ft | 403 kts | 154° |
| 2026-04-25 08:05 | -31.11702 | 150.98755 | 32482 ft | 403 kts | 154° |
| 2026-04-25 08:05 | -31.14185 | 151.00176 | 31766 ft | 403 kts | 154° |
| 2026-04-25 08:06 | -31.16723 | 151.01630 | 31019 ft | 403 kts | 154° |
| 2026-04-25 08:06 | -31.19206 | 151.03052 | 30263 ft | 403 kts | 154° |
| 2026-04-25 08:06 | -31.21714 | 151.04491 | 29667 ft | 402 kts | 154° |
| 2026-04-25 08:06 | -31.24269 | 151.05955 | 29300 ft | 414 kts | 154° |
| 2026-04-25 08:07 | -31.26863 | 151.07443 | 28836 ft | 419 kts | 154° |
| 2026-04-25 08:07 | -31.29451 | 151.08929 | 28353 ft | 410 kts | 154° |
| 2026-04-25 08:07 | -31.31980 | 151.10382 | 27880 ft | 402 kts | 154° |
| 2026-04-25 08:07 | -31.34488 | 151.11824 | 27406 ft | 406 kts | 154° |
| 2026-04-25 08:08 | -31.37043 | 151.13295 | 26922 ft | 411 kts | 154° |
| 2026-04-25 08:08 | -31.39592 | 151.14763 | 26435 ft | 403 kts | 153° |
| 2026-04-25 08:08 | -31.42082 | 151.16197 | 25961 ft | 395 kts | 153° |
| 2026-04-25 08:08 | -31.44547 | 151.17618 | 25495 ft | 395 kts | 153° |
| 2026-04-25 08:09 | -31.47004 | 151.19035 | 25031 ft | 400 kts | 153° |
| 2026-04-25 08:09 | -31.49492 | 151.20473 | 24549 ft | 393 kts | 153° |
| 2026-04-25 08:09 | -31.51909 | 151.21867 | 24088 ft | 384 kts | 153° |
| 2026-04-25 08:09 | -31.54317 | 151.23257 | 23643 ft | 388 kts | 152° |
| 2026-04-25 08:10 | -31.56745 | 151.24663 | 23175 ft | 390 kts | 152° |
| 2026-04-25 08:10 | -31.59144 | 151.26050 | 22718 ft | 382 kts | 152° |
| 2026-04-25 08:10 | -31.61507 | 151.27417 | 22267 ft | 376 kts | 152° |
| 2026-04-25 08:10 | -31.63880 | 151.28792 | 21822 ft | 383 kts | 152° |
| 2026-04-25 08:11 | -31.66279 | 151.30183 | 21358 ft | 382 kts | 152° |
| 2026-04-25 08:11 | -31.68612 | 151.31535 | 20915 ft | 373 kts | 152° |
| 2026-04-25 08:11 | -31.70936 | 151.32883 | 20478 ft | 372 kts | 152° |
| 2026-04-25 08:11 | -31.73266 | 151.34236 | 20041 ft | 378 kts | 152° |
| 2026-04-25 08:12 | -31.75608 | 151.35597 | 19593 ft | 371 kts | 152° |
| 2026-04-25 08:12 | -31.77908 | 151.36932 | 19156 ft | 363 kts | 152° |
| 2026-04-25 08:12 | -31.80168 | 151.38248 | 18727 ft | 370 kts | 152° |
| 2026-04-25 08:12 | -31.82497 | 151.39606 | 18283 ft | 371 kts | 152° |
| 2026-04-25 08:13 | -31.84767 | 151.40927 | 17854 ft | 362 kts | 152° |
| 2026-04-25 08:13 | -31.87021 | 151.42241 | 17429 ft | 361 kts | 152° |
| 2026-04-25 08:13 | -31.89303 | 151.43571 | 16994 ft | 366 kts | 152° |
| 2026-04-25 08:14 | -31.93765 | 151.46172 | 16156 ft | 349 kts | 152° |
| 2026-04-25 08:14 | -31.95944 | 151.47444 | 15743 ft | 355 kts | 152° |
| 2026-04-25 08:14 | -31.98174 | 151.48747 | 15324 ft | 354 kts | 152° |
| 2026-04-25 08:14 | -32.00337 | 151.50011 | 14910 ft | 345 kts | 152° |
| 2026-04-25 08:15 | -32.02470 | 151.51257 | 14501 ft | 346 kts | 152° |
| 2026-04-25 08:15 | -32.04641 | 151.52528 | 14080 ft | 349 kts | 152° |
| 2026-04-25 08:15 | -32.06806 | 151.53795 | 13668 ft | 340 kts | 152° |
| 2026-04-25 08:15 | -32.08901 | 151.55020 | 13279 ft | 338 kts | 152° |
| 2026-04-25 08:16 | -32.11021 | 151.56264 | 12877 ft | 343 kts | 152° |
| 2026-04-25 08:16 | -32.13152 | 151.57513 | 12465 ft | 338 kts | 152° |
| 2026-04-25 08:16 | -32.15241 | 151.58737 | 12068 ft | 329 kts | 152° |
| 2026-04-25 08:16 | -32.17292 | 151.59941 | 11682 ft | 335 kts | 151° |
| 2026-04-25 08:17 | -32.19397 | 151.61179 | 11284 ft | 335 kts | 151° |
| 2026-04-25 08:17 | -32.21459 | 151.62389 | 10763 ft | 331 kts | 151° |
| 2026-04-25 08:17 | -32.23531 | 151.63606 | 10088 ft | 330 kts | 151° |
| 2026-04-25 08:17 | -32.25546 | 151.64790 | 9685 ft | 318 kts | 151° |
| 2026-04-25 08:18 | -32.27455 | 151.65909 | 9354 ft | 299 kts | 150° |
| 2026-04-25 08:18 | -32.29270 | 151.66974 | 9016 ft | 284 kts | 150° |
| 2026-04-25 08:18 | -32.31000 | 151.67993 | 8685 ft | 272 kts | 150° |
| 2026-04-25 08:18 | -32.32685 | 151.68915 | 8368 ft | 261 kts | 156° |
| 2026-04-25 08:19 | -32.34428 | 151.69359 | 8069 ft | 256 kts | 173° |
| 2026-04-25 08:19 | -32.36239 | 151.69386 | 7757 ft | 265 kts | 177° |
| 2026-04-25 08:19 | -32.38090 | 151.69351 | 7435 ft | 265 kts | 177° |
| 2026-04-25 08:19 | -32.39912 | 151.69345 | 7113 ft | 255 kts | 176° |
| 2026-04-25 08:20 | -32.41690 | 151.69374 | 6808 ft | 259 kts | 176° |
| 2026-04-25 08:20 | -32.43509 | 151.69421 | 6496 ft | 261 kts | 176° |
| 2026-04-25 08:20 | -32.45313 | 151.69472 | 6188 ft | 254 kts | 176° |
| 2026-04-25 08:20 | -32.47082 | 151.69518 | 5884 ft | 256 kts | 176° |
| 2026-04-25 08:21 | -32.48884 | 151.69568 | 5568 ft | 259 kts | 176° |
| 2026-04-25 08:21 | -32.50669 | 151.69617 | 5259 ft | 256 kts | 176° |
| 2026-04-25 08:21 | -32.52443 | 151.69663 | 4953 ft | 252 kts | 176° |
| 2026-04-25 08:21 | -32.54198 | 151.69710 | 4649 ft | 252 kts | 176° |
| 2026-04-25 08:22 | -32.55959 | 151.69759 | 4346 ft | 257 kts | 176° |
| 2026-04-25 08:22 | -32.57739 | 151.69763 | 4040 ft | 255 kts | 181° |
| 2026-04-25 08:22 | -32.59453 | 151.69299 | 3896 ft | 248 kts | 204° |
| 2026-04-25 08:22 | -32.60815 | 151.68127 | 3835 ft | 240 kts | 221° |
| 2026-04-25 08:23 | -32.62000 | 151.66795 | 3764 ft | 231 kts | 222° |
| 2026-04-25 08:23 | -32.63183 | 151.65536 | 3691 ft | 222 kts | 215° |
| 2026-04-25 08:23 | -32.64539 | 151.64813 | 3621 ft | 211 kts | 182° |
| 2026-04-25 08:23 | -32.65928 | 151.65149 | 3489 ft | 200 kts | 145° |
| 2026-04-25 08:24 | -32.66945 | 151.66197 | 3354 ft | 195 kts | 130° |
| 2026-04-25 08:24 | -32.67874 | 151.67369 | 3242 ft | 194 kts | 129° |
| 2026-04-25 08:24 | -32.68783 | 151.68558 | 3039 ft | 190 kts | 128° |
| 2026-04-25 08:24 | -32.69617 | 151.69688 | 2781 ft | 176 kts | 127° |
| 2026-04-25 08:25 | -32.70408 | 151.70775 | 2524 ft | 170 kts | 126° |
| 2026-04-25 08:25 | -32.71178 | 151.71838 | 2293 ft | 170 kts | 126° |
| 2026-04-25 08:25 | -32.71941 | 151.72891 | 2096 ft | 164 kts | 126° |
| 2026-04-25 08:25 | -32.72654 | 151.73869 | 1849 ft | 150 kts | 125° |
| 2026-04-25 08:26 | -32.73300 | 151.74759 | 1659 ft | 134 kts | 124° |
| 2026-04-25 08:26 | -32.73884 | 151.75578 | 1484 ft | 127 kts | 124° |
| 2026-04-25 08:26 | -32.74460 | 151.76378 | 1314 ft | 128 kts | 126° |
| 2026-04-25 08:26 | -32.75040 | 151.77182 | 1145 ft | 127 kts | 126° |
| 2026-04-25 08:27 | -32.75618 | 151.77983 | 977 ft | 127 kts | 126° |
| 2026-04-25 08:27 | -32.76189 | 151.78775 | 807 ft | 127 kts | 126° |
| 2026-04-25 08:27 | -32.76766 | 151.79575 | 640 ft | 127 kts | 127° |
| 2026-04-25 08:27 | -32.77344 | 151.80377 | 471 ft | 127 kts | 127° |
| 2026-04-25 08:28 | -32.77922 | 151.81178 | 304 ft | 128 kts | 128° |
| 2026-04-25 08:28 | -32.78503 | 151.81984 | 124 ft | 130 kts | 128° |
| 2026-04-25 08:28 | -32.79084 | 151.82783 | 34 ft | 122 kts | 128° |
| 2026-04-25 08:28 | -32.79475 | 151.83330 | 34 ft | 63 kts | 129° |
| 2026-04-25 08:29 | -32.79700 | 151.83644 | 34 ft | 39 kts | 129° |
| 2026-04-25 08:29 | -32.79826 | 151.83824 | 34 ft | 23 kts | 116° |
| 2026-04-25 08:29 | -32.79799 | 151.83955 | 34 ft | 9 kts | 53° |
| 2026-04-25 08:29 | -32.79783 | 151.83981 | 34 ft | 5 kts | 53° |
| 2026-04-25 08:30 | -32.79750 | 151.84035 | 34 ft | 10 kts | 53° |
| 2026-04-25 08:30 | -32.79697 | 151.84120 | 34 ft | 14 kts | 54° |
| 2026-04-25 08:30 | -32.79640 | 151.84190 | 34 ft | 10 kts | 347° |
| 2026-04-25 08:30 | -32.79578 | 151.84172 | 34 ft | 10 kts | 24° |
| 2026-04-25 08:31 | -32.79528 | 151.84204 | 34 ft | 8 kts | 308° |
| 2026-04-25 08:31 | -32.79531 | 151.84160 | 34 ft | 0 kts | 239° |